Time,TemperatureF,DewpointF,PressureIn,WindDirection,WindDirectionDegrees,WindSpeedMPH,WindSpeedGustMPH,Humidity,HourlyPrecipIn,Conditions,Clouds,dailyrainin,SolarRadiationWatts/m^2,SoftwareType,DateUTC
2013-10-17 00:01:00,49.1,39.5,29.91,WSW,252,5.1,7.1,69,0.00,,,0.00,0.00,VWS V14.01,2013-10-17 04:01:00,
2013-10-17 00:02:00,49.1,39.5,29.90,WSW,256,4.5,5.1,69,0.00,,,0.00,0.12,VWS V14.01,2013-10-17 04:02:00,
2013-10-17 00:03:00,49.2,39.5,29.90,West,259,6.1,6.1,69,0.00,,,0.00,0.12,VWS V14.01,2013-10-17 04:03:00,
2013-10-17 00:06:00,49.2,39.5,29.91,WSW,238,6.9,6.9,69,0.00,,,0.00,0.00,VWS V14.01,2013-10-17 04:06:00,
2013-10-17 00:07:00,49.2,39.7,29.91,WSW,253,4.5,5.9,69,0.00,,,0.00,0.00,VWS V14.01,2013-10-17 04:07:00,
2013-10-17 00:09:00,49.2,39.7,29.91,WSW,257,5.9,5.9,70,0.00,,,0.00,0.00,VWS V14.01,2013-10-17 04:09:00,
2013-10-17 00:12:00,49.1,39.5,29.90,SW,231,5.2,6.4,69,0.00,,,0.00,0.00,VWS V14.01,2013-10-17 04:12:00,
2013-10-17 00:13:00,49.1,39.7,29.89,WSW,247,4.0,6.4,70,0.00,,,0.00,0.73,VWS V14.01,2013-10-17 04:13:00,
2013-10-17 00:14:00,49.2,40.0,29.91,WSW,245,4.4,4.4,70,0.00,,,0.00,0.00,VWS V14.01,2013-10-17 04:14:00,
2013-10-17 00:15:00,49.2,40.0,29.91,West,263,4.9,4.9,71,0.00,,,0.00,0.00,VWS V14.01,2013-10-17 04:15:00,
2013-10-17 00:17:00,49.2,39.8,29.90,West,276,5.9,5.9,70,0.00,,,0.00,0.00,VWS V14.01,2013-10-17 04:17:00,
2013-10-17 00:18:00,49.2,39.6,29.89,WSW,256,7.3,7.3,69,0.00,,,0.00,0.67,VWS V14.01,2013-10-17 04:18:00,
2013-10-17 00:21:00,49.3,39.7,29.90,West,267,7.6,7.6,69,0.00,,,0.00,0.00,VWS V14.01,2013-10-17 04:21:00,
2013-10-17 00:22:00,49.3,39.7,29.90,WSW,249,6.1,7.6,69,0.00,,,0.00,0.43,VWS V14.01,2013-10-17 04:22:00,
2013-10-17 00:23:00,49.2,39.5,29.90,West,265,5.6,6.8,69,0.00,,,0.00,0.00,VWS V14.01,2013-10-17 04:23:00,
2013-10-17 00:25:00,49.2,39.7,29.91,WSW,252,4.4,7.1,70,0.00,,,0.00,0.00,VWS V14.01,2013-10-17 04:25:00,
2013-10-17 00:27:00,49.3,39.8,29.90,WSW,237,5.9,6.1,70,0.00,,,0.00,0.73,VWS V14.01,2013-10-17 04:27:00,
2013-10-17 00:28:00,49.3,39.7,29.91,WSW,253,6.1,6.9,69,0.00,,,0.00,0.00,VWS V14.01,2013-10-17 04:28:00,
2013-10-17 00:31:00,49.4,39.8,29.90,WSW,258,7.5,7.5,69,0.00,,,0.00,0.00,VWS V14.01,2013-10-17 04:31:00,
2013-10-17 00:32:00,49.3,39.8,29.90,West,277,4.7,4.7,70,0.00,,,0.00,0.73,VWS V14.01,2013-10-17 04:32:00,
2013-10-17 00:33:00,49.3,39.8,29.90,West,277,4.7,4.7,70,0.00,,,0.00,0.73,VWS V14.01,2013-10-17 04:33:00,
2013-10-17 00:34:00,49.5,40.2,29.90,WSW,250,8.1,8.1,70,0.00,,,0.00,0.00,VWS V14.01,2013-10-17 04:34:00,
2013-10-17 00:35:00,49.3,39.8,29.91,WSW,244,6.6,6.6,69,0.00,,,0.00,0.43,VWS V14.01,2013-10-17 04:35:00,
2013-10-17 00:38:00,49.2,39.8,29.91,West,264,2.7,6.9,70,0.00,,,0.00,0.43,VWS V14.01,2013-10-17 04:38:00,
2013-10-17 00:40:00,49.3,40.3,29.90,West,265,6.1,6.1,71,0.00,,,0.00,0.12,VWS V14.01,2013-10-17 04:40:00,
2013-10-17 00:41:00,49.1,40.2,29.90,WNW,289,4.0,6.1,71,0.00,,,0.00,0.00,VWS V14.01,2013-10-17 04:41:00,
2013-10-17 00:43:00,49.3,40.3,29.90,West,265,4.9,4.9,71,0.00,,,0.00,0.00,VWS V14.01,2013-10-17 04:43:00,
2013-10-17 00:45:00,49.0,40.2,29.89,West,276,3.5,4.2,71,0.00,,,0.00,0.00,VWS V14.01,2013-10-17 04:45:00,
2013-10-17 00:47:00,49.3,40.6,29.90,WNW,283,5.1,5.1,72,0.00,,,0.00,0.00,VWS V14.01,2013-10-17 04:47:00,
2013-10-17 00:48:00,49.3,40.6,29.93,West,270,4.5,5.1,72,0.00,,,0.00,0.00,VWS V14.01,2013-10-17 04:48:00,
2013-10-17 00:49:00,49.2,40.4,29.90,West,263,4.0,5.4,71,0.00,,,0.00,0.00,VWS V14.01,2013-10-17 04:49:00,
2013-10-17 00:50:00,49.2,40.4,29.90,West,263,4.0,5.4,71,0.00,,,0.00,0.00,VWS V14.01,2013-10-17 04:50:00,
2013-10-17 00:53:00,49.1,40.3,29.91,West,267,4.4,5.1,72,0.00,,,0.00,0.00,VWS V14.01,2013-10-17 04:53:00,
2013-10-17 00:54:00,49.2,40.3,29.90,West,267,4.5,5.1,71,0.00,,,0.00,0.00,VWS V14.01,2013-10-17 04:54:00,
2013-10-17 00:55:00,49.1,40.3,29.90,West,278,4.2,4.5,71,0.00,,,0.00,0.00,VWS V14.01,2013-10-17 04:55:00,
2013-10-17 00:56:00,49.3,40.7,29.91,West,267,4.4,4.7,72,0.00,,,0.00,0.00,VWS V14.01,2013-10-17 04:56:00,
2013-10-17 00:57:00,49.0,40.5,29.90,WSW,252,3.4,4.4,73,0.00,,,0.00,0.00,VWS V14.01,2013-10-17 04:57:00,
2013-10-17 00:59:00,49.0,41.0,29.90,West,274,3.9,3.9,74,0.00,,,0.00,0.00,VWS V14.01,2013-10-17 04:59:00,
2013-10-17 01:01:00,49.2,41.1,29.90,West,277,3.4,3.7,73,0.00,,,0.00,0.00,VWS V14.01,2013-10-17 05:01:00,
2013-10-17 01:02:00,49.3,41.2,29.90,WNW,288,5.1,5.1,73,0.00,,,0.00,0.12,VWS V14.01,2013-10-17 05:02:00,
2013-10-17 01:04:00,49.4,40.8,29.90,West,277,6.4,6.4,72,0.00,,,0.00,0.00,VWS V14.01,2013-10-17 05:04:00,
2013-10-17 01:05:00,49.2,40.7,29.90,WNW,287,4.4,5.1,72,0.00,,,0.00,0.73,VWS V14.01,2013-10-17 05:05:00,
2013-10-17 01:06:00,49.2,40.8,29.90,West,274,4.7,4.7,73,0.00,,,0.00,0.00,VWS V14.01,2013-10-17 05:06:00,
2013-10-17 01:08:00,49.1,40.8,29.90,West,281,3.7,4.7,73,0.00,,,0.00,0.00,VWS V14.01,2013-10-17 05:08:00,
2013-10-17 01:09:00,49.1,38.1,29.90,West,281,3.7,5.2,66,0.00,,,0.00,0.00,VWS V14.01,2013-10-17 05:09:00,
2013-10-17 01:11:00,49.2,39.9,29.90,West,260,5.6,5.6,70,0.00,,,0.00,0.00,VWS V14.01,2013-10-17 05:11:00,
2013-10-17 01:12:00,49.4,41.0,29.90,West,271,5.7,5.7,73,0.00,,,0.00,0.00,VWS V14.01,2013-10-17 05:12:00,
2013-10-17 01:14:00,49.3,41.0,29.90,WNW,293,5.1,5.7,73,0.00,,,0.00,0.00,VWS V14.01,2013-10-17 05:14:00,
2013-10-17 01:15:00,49.4,41.1,29.90,West,263,4.0,4.9,73,0.00,,,0.00,0.43,VWS V14.01,2013-10-17 05:15:00,
2013-10-17 01:18:00,49.4,41.3,29.90,WNW,284,5.2,5.2,74,0.00,,,0.00,0.00,VWS V14.01,2013-10-17 05:18:00,
2013-10-17 01:19:00,49.2,41.1,29.90,West,275,4.0,5.2,74,0.00,,,0.00,0.00,VWS V14.01,2013-10-17 05:19:00,
2013-10-17 01:20:00,49.2,41.3,29.93,West,270,4.2,4.2,74,0.00,,,0.00,0.73,VWS V14.01,2013-10-17 05:20:00,
2013-10-17 01:21:00,49.5,41.2,29.88,West,275,6.1,6.1,73,0.00,,,0.00,0.00,VWS V14.01,2013-10-17 05:21:00,
2013-10-17 01:22:00,49.5,41.2,29.89,WNW,292,5.7,6.1,73,0.00,,,0.00,0.00,VWS V14.01,2013-10-17 05:22:00,
2013-10-17 01:24:00,49.2,40.9,29.90,West,275,3.7,5.2,73,0.00,,,0.00,0.00,VWS V14.01,2013-10-17 05:24:00,
2013-10-17 01:25:00,49.3,41.1,29.90,West,269,3.5,3.7,73,0.00,,,0.00,0.12,VWS V14.01,2013-10-17 05:25:00,
2013-10-17 01:26:00,49.5,41.2,29.89,West,275,7.1,7.1,73,0.00,,,0.00,0.00,VWS V14.01,2013-10-17 05:26:00,
2013-10-17 01:30:00,49.1,41.0,29.90,West,277,4.2,4.2,73,0.00,,,0.00,0.00,VWS V14.01,2013-10-17 05:30:00,
2013-10-17 01:31:00,49.0,41.1,29.90,WNW,286,3.2,3.2,74,0.00,,,0.00,0.00,VWS V14.01,2013-10-17 05:31:00,
2013-10-17 01:32:00,49.0,41.1,29.90,WNW,286,3.2,3.2,74,0.00,,,0.00,0.00,VWS V14.01,2013-10-17 05:32:00,
2013-10-17 01:36:00,49.0,41.2,29.89,West,279,3.2,4.5,75,0.00,,,0.00,0.00,VWS V14.01,2013-10-17 05:36:00,
2013-10-17 01:37:00,49.0,41.2,29.89,West,279,3.2,4.5,75,0.00,,,0.00,0.00,VWS V14.01,2013-10-17 05:37:00,
2013-10-17 01:38:00,49.2,41.5,29.89,WNW,296,5.7,5.7,75,0.00,,,0.00,0.00,VWS V14.01,2013-10-17 05:38:00,
2013-10-17 01:42:00,49.1,41.3,29.88,WNW,286,4.4,4.4,74,0.00,,,0.00,0.00,VWS V14.01,2013-10-17 05:42:00,
2013-10-17 01:43:00,48.9,41.1,29.88,West,268,3.9,5.6,74,0.00,,,0.00,0.00,VWS V14.01,2013-10-17 05:43:00,
2013-10-17 01:44:00,49.0,41.3,29.88,West,269,4.0,4.0,74,0.00,,,0.00,0.00,VWS V14.01,2013-10-17 05:44:00,
2013-10-17 01:45:00,49.0,41.3,29.89,West,273,3.9,4.0,75,0.00,,,0.00,0.00,VWS V14.01,2013-10-17 05:45:00,
2013-10-17 01:48:00,49.0,41.4,29.89,West,274,4.7,4.7,75,0.00,,,0.00,0.00,VWS V14.01,2013-10-17 05:48:00,
2013-10-17 01:49:00,49.0,41.3,29.90,West,280,4.5,4.7,75,0.00,,,0.00,0.00,VWS V14.01,2013-10-17 05:49:00,
2013-10-17 01:50:00,49.2,41.5,29.89,WSW,257,5.7,5.7,75,0.00,,,0.00,0.00,VWS V14.01,2013-10-17 05:50:00,
2013-10-17 01:51:00,49.1,41.4,29.89,WSW,258,4.9,5.7,75,0.00,,,0.00,0.00,VWS V14.01,2013-10-17 05:51:00,
2013-10-17 01:54:00,48.8,41.4,29.89,West,265,3.0,4.7,75,0.00,,,0.00,0.00,VWS V14.01,2013-10-17 05:54:00,
2013-10-17 01:55:00,49.0,41.6,29.89,West,276,3.9,4.7,76,0.00,,,0.00,0.00,VWS V14.01,2013-10-17 05:55:00,
2013-10-17 01:56:00,48.9,41.6,29.90,West,270,4.2,4.2,76,0.00,,,0.00,0.00,VWS V14.01,2013-10-17 05:56:00,
2013-10-17 01:59:00,48.8,41.5,29.89,West,273,3.9,3.9,76,0.00,,,0.00,0.00,VWS V14.01,2013-10-17 05:59:00,
2013-10-17 02:00:00,48.9,41.7,29.89,WNW,283,4.7,4.7,76,0.00,,,0.00,0.00,VWS V14.01,2013-10-17 06:00:00,
2013-10-17 02:01:00,48.9,41.7,29.89,WNW,283,4.7,4.7,76,0.00,,,0.00,0.00,VWS V14.01,2013-10-17 06:01:00,
2013-10-17 02:02:00,49.1,41.9,29.89,West,273,4.2,4.7,76,0.00,,,0.00,0.12,VWS V14.01,2013-10-17 06:02:00,
2013-10-17 02:03:00,49.1,41.9,29.89,West,273,4.2,4.7,76,0.00,,,0.00,0.12,VWS V14.01,2013-10-17 06:03:00,
2013-10-17 02:04:00,48.8,41.7,29.89,West,275,4.5,4.7,76,0.00,,,0.00,0.00,VWS V14.01,2013-10-17 06:04:00,
2013-10-17 02:06:00,48.6,41.5,29.89,WSW,253,3.9,5.4,76,0.00,,,0.00,0.00,VWS V14.01,2013-10-17 06:06:00,
2013-10-17 02:07:00,49.1,42.0,29.89,West,264,5.7,5.7,76,0.00,,,0.00,0.00,VWS V14.01,2013-10-17 06:07:00,
2013-10-17 02:08:00,49.2,42.0,29.89,West,269,6.8,6.8,76,0.00,,,0.00,0.00,VWS V14.01,2013-10-17 06:08:00,
2013-10-17 02:11:00,48.8,41.8,29.89,West,272,4.9,6.8,76,0.00,,,0.00,0.43,VWS V14.01,2013-10-17 06:11:00,
2013-10-17 02:12:00,48.7,41.8,29.89,West,263,3.7,6.8,77,0.00,,,0.00,0.00,VWS V14.01,2013-10-17 06:12:00,
2013-10-17 02:14:00,48.7,42.0,29.90,West,266,4.2,6.8,77,0.00,,,0.00,0.00,VWS V14.01,2013-10-17 06:14:00,
2013-10-17 02:17:00,48.7,42.1,29.90,West,276,3.7,6.8,78,0.00,,,0.00,0.00,VWS V14.01,2013-10-17 06:17:00,
2013-10-17 02:19:00,49.0,42.0,29.89,West,263,6.4,6.8,77,0.00,,,0.00,0.00,VWS V14.01,2013-10-17 06:19:00,
2013-10-17 02:20:00,48.8,41.8,29.89,WSW,255,5.2,6.8,77,0.00,,,0.00,0.00,VWS V14.01,2013-10-17 06:20:00,
2013-10-17 02:22:00,49.0,42.2,29.90,West,263,3.7,6.8,77,0.00,,,0.00,0.00,VWS V14.01,2013-10-17 06:22:00,
2013-10-17 02:23:00,49.2,42.4,29.89,West,278,6.3,6.8,77,0.00,,,0.00,0.00,VWS V14.01,2013-10-17 06:23:00,
2013-10-17 02:24:00,49.0,42.2,29.90,WSW,253,4.4,6.8,77,0.00,,,0.00,0.00,VWS V14.01,2013-10-17 06:24:00,
2013-10-17 02:25:00,48.9,42.2,29.89,West,264,4.4,6.8,77,0.00,,,0.00,0.00,VWS V14.01,2013-10-17 06:25:00,
2013-10-17 02:26:00,49.0,42.2,29.89,West,264,5.4,6.8,77,0.00,,,0.00,0.00,VWS V14.01,2013-10-17 06:26:00,
2013-10-17 02:27:00,49.0,42.2,29.90,WSW,244,4.7,6.8,77,0.00,,,0.00,0.12,VWS V14.01,2013-10-17 06:27:00,
2013-10-17 02:30:00,48.9,42.1,29.89,WNW,292,4.4,6.8,77,0.00,,,0.00,0.00,VWS V14.01,2013-10-17 06:30:00,
2013-10-17 02:31:00,49.0,42.2,29.90,West,278,4.5,6.8,77,0.00,,,0.00,0.00,VWS V14.01,2013-10-17 06:31:00,
2013-10-17 02:33:00,49.0,42.1,29.90,West,274,5.4,7.3,77,0.00,,,0.00,0.43,VWS V14.01,2013-10-17 06:33:00,
2013-10-17 02:35:00,48.8,42.0,29.89,WSW,242,4.5,7.3,77,0.00,,,0.00,0.00,VWS V14.01,2013-10-17 06:35:00,
2013-10-17 02:36:00,49.3,42.5,29.90,WSW,250,8.5,8.5,77,0.00,,,0.00,0.00,VWS V14.01,2013-10-17 06:36:00,
2013-10-17 02:37:00,49.1,42.2,29.90,West,274,5.6,8.5,77,0.00,,,0.00,0.00,VWS V14.01,2013-10-17 06:37:00,
2013-10-17 02:39:00,48.8,41.8,29.89,WSW,243,4.2,8.5,77,0.00,,,0.00,0.00,VWS V14.01,2013-10-17 06:39:00,
2013-10-17 02:42:00,48.5,41.6,29.90,West,270,3.7,8.5,77,0.00,,,0.00,0.00,VWS V14.01,2013-10-17 06:42:00,
2013-10-17 02:43:00,48.8,42.1,29.90,West,264,5.9,8.5,77,0.00,,,0.00,0.00,VWS V14.01,2013-10-17 06:43:00,
2013-10-17 02:44:00,48.8,42.2,29.88,West,276,3.9,8.5,78,0.00,,,0.00,0.43,VWS V14.01,2013-10-17 06:44:00,
2013-10-17 02:47:00,48.7,42.2,29.89,WSW,257,3.5,8.5,78,0.00,,,0.00,0.00,VWS V14.01,2013-10-17 06:47:00,
2013-10-17 02:48:00,48.9,42.5,29.92,West,259,4.4,8.5,78,0.00,,,0.00,0.00,VWS V14.01,2013-10-17 06:48:00,
2013-10-17 02:49:00,48.9,42.4,29.90,West,271,5.1,8.5,78,0.00,,,0.00,0.00,VWS V14.01,2013-10-17 06:49:00,
2013-10-17 02:52:00,49.0,42.6,29.88,West,279,6.1,8.5,79,0.00,,,0.00,0.00,VWS V14.01,2013-10-17 06:52:00,
2013-10-17 02:53:00,49.0,42.6,29.88,WSW,254,5.9,8.5,78,0.00,,,0.00,0.12,VWS V14.01,2013-10-17 06:53:00,
2013-10-17 02:54:00,48.8,42.4,29.88,West,270,4.5,8.5,78,0.00,,,0.00,0.00,VWS V14.01,2013-10-17 06:54:00,
2013-10-17 02:56:00,48.5,42.5,29.88,West,262,3.7,8.5,79,0.00,,,0.00,0.00,VWS V14.01,2013-10-17 06:56:00,
2013-10-17 02:57:00,48.8,42.7,29.89,West,261,5.2,8.5,79,0.00,,,0.00,0.00,VWS V14.01,2013-10-17 06:57:00,
2013-10-17 02:59:00,48.8,42.8,29.89,WSW,256,4.9,8.5,80,0.00,,,0.00,0.00,VWS V14.01,2013-10-17 06:59:00,
2013-10-17 03:00:00,48.7,42.7,29.89,West,274,4.4,8.5,80,0.00,,,0.00,0.00,VWS V14.01,2013-10-17 07:00:00,
2013-10-17 03:04:00,48.9,42.8,29.89,West,278,5.6,5.6,79,0.00,,,0.00,0.00,VWS V14.01,2013-10-17 07:04:00,
2013-10-17 03:05:00,48.9,42.9,29.90,West,272,4.2,5.6,80,0.00,,,0.00,0.00,VWS V14.01,2013-10-17 07:05:00,
2013-10-17 03:07:00,49.0,43.0,29.90,West,267,4.7,5.6,80,0.00,,,0.00,0.00,VWS V14.01,2013-10-17 07:07:00,
2013-10-17 03:09:00,48.9,42.9,29.89,WNW,286,4.2,5.7,80,0.00,,,0.00,0.00,VWS V14.01,2013-10-17 07:09:00,
2013-10-17 03:10:00,48.7,42.9,29.94,WNW,292,2.7,5.7,80,0.00,,,0.00,0.00,VWS V14.01,2013-10-17 07:10:00,
2013-10-17 03:11:00,48.8,43.0,29.90,West,276,4.0,5.7,80,0.00,,,0.00,0.00,VWS V14.01,2013-10-17 07:11:00,
2013-10-17 03:12:00,48.8,43.0,29.89,West,267,4.5,5.7,80,0.00,,,0.00,0.00,VWS V14.01,2013-10-17 07:12:00,
2013-10-17 03:13:00,48.9,43.0,29.89,West,277,5.6,5.7,80,0.00,,,0.00,0.12,VWS V14.01,2013-10-17 07:13:00,
2013-10-17 03:16:00,49.0,42.8,29.89,West,274,5.1,5.9,79,0.00,,,0.00,0.00,VWS V14.01,2013-10-17 07:16:00,
2013-10-17 03:17:00,49.0,42.8,29.89,West,274,5.1,5.9,79,0.00,,,0.00,0.00,VWS V14.01,2013-10-17 07:17:00,
2013-10-17 03:18:00,48.8,42.7,29.89,West,276,3.0,5.9,79,0.00,,,0.00,0.00,VWS V14.01,2013-10-17 07:18:00,
2013-10-17 03:20:00,48.8,42.9,29.89,WNW,285,3.4,5.9,80,0.00,,,0.00,0.00,VWS V14.01,2013-10-17 07:20:00,
2013-10-17 03:23:00,48.8,43.0,29.89,West,262,3.9,5.9,80,0.00,,,0.00,0.00,VWS V14.01,2013-10-17 07:23:00,
2013-10-17 03:25:00,48.9,43.1,29.89,West,267,4.9,5.9,80,0.00,,,0.00,0.00,VWS V14.01,2013-10-17 07:25:00,
2013-10-17 03:26:00,48.9,43.0,29.89,West,272,4.5,5.9,80,0.00,,,0.00,0.00,VWS V14.01,2013-10-17 07:26:00,
2013-10-17 03:27:00,49.1,43.1,29.89,West,269,5.2,5.9,80,0.00,,,0.00,0.00,VWS V14.01,2013-10-17 07:27:00,
2013-10-17 03:28:00,48.8,42.9,29.88,WSW,257,4.4,5.9,80,0.00,,,0.00,0.00,VWS V14.01,2013-10-17 07:28:00,
2013-10-17 03:29:00,49.0,43.0,29.88,West,268,5.1,5.9,80,0.00,,,0.00,0.12,VWS V14.01,2013-10-17 07:29:00,
2013-10-17 03:32:00,48.8,43.1,29.89,West,261,5.4,5.9,80,0.00,,,0.00,0.00,VWS V14.01,2013-10-17 07:32:00,
2013-10-17 03:33:00,48.7,42.9,29.89,WSW,254,3.9,5.9,80,0.00,,,0.00,0.43,VWS V14.01,2013-10-17 07:33:00,
2013-10-17 03:34:00,48.7,42.9,29.89,WSW,251,5.4,5.9,80,0.00,,,0.00,0.00,VWS V14.01,2013-10-17 07:34:00,
2013-10-17 03:35:00,48.6,42.9,29.89,West,261,3.7,5.9,81,0.00,,,0.00,0.00,VWS V14.01,2013-10-17 07:35:00,
2013-10-17 03:36:00,48.7,43.1,29.89,WSW,257,5.1,5.9,81,0.00,,,0.00,0.00,VWS V14.01,2013-10-17 07:36:00,
2013-10-17 03:38:00,48.4,43.0,29.89,West,268,3.7,5.9,82,0.00,,,0.00,0.00,VWS V14.01,2013-10-17 07:38:00,
2013-10-17 03:39:00,48.5,43.2,29.89,West,280,5.1,5.9,82,0.00,,,0.00,0.00,VWS V14.01,2013-10-17 07:39:00,
2013-10-17 03:40:00,48.6,43.2,29.88,West,267,5.1,5.9,82,0.00,,,0.00,0.00,VWS V14.01,2013-10-17 07:40:00,
2013-10-17 03:41:00,48.4,43.1,29.89,WSW,258,4.9,5.9,82,0.00,,,0.00,0.00,VWS V14.01,2013-10-17 07:41:00,
2013-10-17 03:42:00,48.2,42.9,29.89,WSW,258,3.4,5.9,82,0.00,,,0.00,0.00,VWS V14.01,2013-10-17 07:42:00,
2013-10-17 03:44:00,48.2,43.1,29.90,WSW,257,4.4,5.9,82,0.00,,,0.00,0.00,VWS V14.01,2013-10-17 07:44:00,
2013-10-17 03:46:00,47.7,42.7,29.89,WSW,253,4.4,5.9,83,0.00,,,0.00,0.00,VWS V14.01,2013-10-17 07:46:00,
2013-10-17 03:47:00,47.9,43.1,29.88,West,259,3.7,5.9,83,0.00,,,0.00,0.00,VWS V14.01,2013-10-17 07:47:00,
2013-10-17 03:49:00,48.2,43.6,29.89,WSW,256,4.0,5.9,84,0.00,,,0.00,0.00,VWS V14.01,2013-10-17 07:49:00,
2013-10-17 03:51:00,48.0,43.5,29.89,WSW,249,4.9,5.9,84,0.00,,,0.00,0.73,VWS V14.01,2013-10-17 07:51:00,
2013-10-17 03:53:00,47.8,43.3,29.89,SW,215,4.0,5.9,84,0.00,,,0.00,0.00,VWS V14.01,2013-10-17 07:53:00,
2013-10-17 03:55:00,47.5,43.1,29.89,WSW,253,3.2,5.9,85,0.00,,,0.00,0.00,VWS V14.01,2013-10-17 07:55:00,
2013-10-17 03:57:00,47.6,43.4,29.88,WSW,253,3.5,5.9,85,0.00,,,0.00,0.00,VWS V14.01,2013-10-17 07:57:00,
2013-10-17 03:58:00,47.3,43.2,29.88,West,272,3.7,5.9,86,0.00,,,0.00,0.00,VWS V14.01,2013-10-17 07:58:00,
2013-10-17 03:59:00,47.2,43.2,29.89,WSW,248,3.2,5.9,86,0.00,,,0.00,0.00,VWS V14.01,2013-10-17 07:59:00,
2013-10-17 04:01:00,47.0,43.1,29.89,WSW,248,3.0,5.9,86,0.00,,,0.00,0.00,VWS V14.01,2013-10-17 08:01:00,
2013-10-17 04:02:00,47.0,43.3,29.89,WSW,241,3.0,5.9,87,0.00,,,0.00,0.00,VWS V14.01,2013-10-17 08:02:00,
2013-10-17 04:03:00,47.1,43.5,29.88,SW,230,3.9,3.9,87,0.00,,,0.00,0.00,VWS V14.01,2013-10-17 08:03:00,
2013-10-17 04:05:00,47.2,43.7,29.89,SW,233,3.5,3.5,88,0.00,,,0.00,0.00,VWS V14.01,2013-10-17 08:05:00,
2013-10-17 04:08:00,47.1,43.8,29.87,SW,234,3.0,3.0,88,0.00,,,0.00,0.43,VWS V14.01,2013-10-17 08:08:00,
2013-10-17 04:09:00,47.1,43.8,29.87,SW,234,3.0,3.0,88,0.00,,,0.00,0.43,VWS V14.01,2013-10-17 08:09:00,
2013-10-17 04:10:00,47.2,43.9,29.89,SW,231,3.2,3.2,88,0.00,,,0.00,0.00,VWS V14.01,2013-10-17 08:10:00,
2013-10-17 04:12:00,47.1,43.8,29.88,SW,230,3.0,3.2,88,0.00,,,0.00,0.00,VWS V14.01,2013-10-17 08:12:00,
2013-10-17 04:13:00,47.1,43.8,29.89,WSW,239,3.4,3.4,88,0.00,,,0.00,0.00,VWS V14.01,2013-10-17 08:13:00,
2013-10-17 04:14:00,47.2,43.1,29.88,SW,232,3.5,3.5,86,0.00,,,0.00,0.00,VWS V14.01,2013-10-17 08:14:00,
2013-10-17 04:15:00,47.5,44.3,29.88,SW,235,4.0,4.0,89,0.00,,,0.00,0.00,VWS V14.01,2013-10-17 08:15:00,
2013-10-17 04:16:00,47.1,43.9,29.88,SW,235,2.7,4.0,89,0.00,,,0.00,0.00,VWS V14.01,2013-10-17 08:16:00,
2013-10-17 04:18:00,46.8,43.5,29.88,WSW,239,2.2,3.0,88,0.00,,,0.00,0.00,VWS V14.01,2013-10-17 08:18:00,
2013-10-17 04:19:00,46.6,42.5,29.88,WSW,239,2.5,2.5,85,0.00,,,0.00,0.00,VWS V14.01,2013-10-17 08:19:00,
2013-10-17 04:20:00,46.8,43.6,29.87,WSW,238,2.8,2.8,88,0.00,,,0.00,0.00,VWS V14.01,2013-10-17 08:20:00,
2013-10-17 04:21:00,47.0,43.9,29.88,SW,236,3.5,3.5,89,0.00,,,0.00,0.00,VWS V14.01,2013-10-17 08:21:00,
2013-10-17 04:25:00,46.5,43.6,29.87,SW,233,2.7,3.2,89,0.00,,,0.00,0.00,VWS V14.01,2013-10-17 08:25:00,
2013-10-17 04:26:00,47.0,44.1,29.88,WSW,243,2.8,2.8,90,0.00,,,0.00,0.00,VWS V14.01,2013-10-17 08:26:00,
2013-10-17 04:27:00,46.9,44.0,29.88,WSW,243,2.7,2.7,90,0.00,,,0.00,0.00,VWS V14.01,2013-10-17 08:27:00,
2013-10-17 04:30:00,46.7,43.8,29.87,WSW,247,3.5,3.5,89,0.00,,,0.00,0.00,VWS V14.01,2013-10-17 08:30:00,
2013-10-17 04:31:00,46.2,43.3,29.87,WSW,249,3.2,3.5,90,0.00,,,0.00,0.00,VWS V14.01,2013-10-17 08:31:00,
2013-10-17 04:34:00,46.6,43.8,29.87,WSW,254,3.7,3.7,90,0.00,,,0.00,0.00,VWS V14.01,2013-10-17 08:34:00,
2013-10-17 04:35:00,46.5,43.8,29.88,WSW,253,4.0,4.0,90,0.00,,,0.00,0.00,VWS V14.01,2013-10-17 08:35:00,
2013-10-17 04:36:00,45.8,43.0,29.88,WSW,252,3.5,4.0,90,0.00,,,0.00,0.00,VWS V14.01,2013-10-17 08:36:00,
2013-10-17 04:37:00,46.2,43.4,29.88,WSW,254,3.7,3.7,90,0.00,,,0.00,0.00,VWS V14.01,2013-10-17 08:37:00,
2013-10-17 04:38:00,45.6,42.8,29.88,West,269,3.4,3.9,90,0.00,,,0.00,0.00,VWS V14.01,2013-10-17 08:38:00,
2013-10-17 04:41:00,46.1,43.5,29.88,WSW,246,4.2,4.2,90,0.00,,,0.00,0.00,VWS V14.01,2013-10-17 08:41:00,
2013-10-17 04:42:00,46.0,43.4,29.88,WSW,253,4.4,4.4,90,0.00,,,0.00,0.00,VWS V14.01,2013-10-17 08:42:00,
2013-10-17 04:43:00,46.3,43.8,29.89,West,260,4.4,4.4,91,0.00,,,0.00,0.00,VWS V14.01,2013-10-17 08:43:00,
2013-10-17 04:44:00,46.1,43.7,29.88,West,268,4.2,4.4,91,0.00,,,0.00,0.00,VWS V14.01,2013-10-17 08:44:00,
2013-10-17 04:46:00,46.1,43.8,29.88,West,266,3.7,3.7,92,0.00,,,0.00,0.00,VWS V14.01,2013-10-17 08:46:00,
2013-10-17 04:47:00,46.3,44.1,29.87,West,272,3.5,3.7,92,0.00,,,0.00,0.00,VWS V14.01,2013-10-17 08:47:00,
2013-10-17 04:48:00,46.2,44.2,29.87,West,265,3.9,3.9,92,0.00,,,0.00,0.00,VWS V14.01,2013-10-17 08:48:00,
2013-10-17 04:51:00,46.3,44.3,29.88,West,265,2.8,3.4,93,0.00,,,0.00,0.00,VWS V14.01,2013-10-17 08:51:00,
2013-10-17 04:52:00,46.1,44.1,29.88,West,264,3.0,3.0,93,0.00,,,0.00,0.00,VWS V14.01,2013-10-17 08:52:00,
2013-10-17 04:53:00,46.5,44.7,29.88,West,270,3.2,3.2,93,0.00,,,0.00,0.00,VWS V14.01,2013-10-17 08:53:00,
2013-10-17 04:54:00,46.2,44.4,29.88,WNW,283,2.5,3.2,93,0.00,,,0.00,0.00,VWS V14.01,2013-10-17 08:54:00,
2013-10-17 04:56:00,46.4,44.5,29.86,WNW,283,2.5,3.0,93,0.00,,,0.00,0.00,VWS V14.01,2013-10-17 08:56:00,
2013-10-17 04:57:00,45.8,43.9,29.87,WNW,283,0.0,2.5,93,0.00,,,0.00,0.00,VWS V14.01,2013-10-17 08:57:00,
2013-10-17 04:58:00,45.9,44.0,29.87,WNW,283,0.0,0.0,93,0.00,,,0.00,0.00,VWS V14.01,2013-10-17 08:58:00,
2013-10-17 04:59:00,46.1,44.3,29.90,WNW,283,0.0,0.0,93,0.00,,,0.00,0.00,VWS V14.01,2013-10-17 08:59:00,
2013-10-17 05:00:00,45.8,44.1,29.87,WNW,283,0.0,0.0,94,0.00,,,0.00,0.00,VWS V14.01,2013-10-17 09:00:00,
2013-10-17 05:01:00,45.8,44.2,29.87,WNW,283,0.0,0.0,94,0.00,,,0.00,0.00,VWS V14.01,2013-10-17 09:01:00,
2013-10-17 05:02:00,46.0,44.5,29.87,West,281,0.0,0.0,94,0.00,,,0.00,0.00,VWS V14.01,2013-10-17 09:02:00,
2013-10-17 05:03:00,46.0,44.5,29.87,West,281,0.0,0.0,94,0.00,,,0.00,0.00,VWS V14.01,2013-10-17 09:03:00,
2013-10-17 05:05:00,45.8,44.4,29.87,West,262,2.0,2.0,95,0.00,,,0.00,0.12,VWS V14.01,2013-10-17 09:05:00,
2013-10-17 05:06:00,46.0,44.7,29.87,West,261,2.7,2.7,95,0.00,,,0.00,0.43,VWS V14.01,2013-10-17 09:06:00,
2013-10-17 05:08:00,45.8,44.5,29.87,WSW,258,2.7,2.7,95,0.00,,,0.00,0.00,VWS V14.01,2013-10-17 09:08:00,
2013-10-17 05:09:00,45.5,44.1,29.87,WSW,254,2.5,2.8,95,0.00,,,0.00,0.00,VWS V14.01,2013-10-17 09:09:00,
2013-10-17 05:11:00,45.4,44.0,29.86,WSW,250,2.2,2.2,95,0.00,,,0.00,0.00,VWS V14.01,2013-10-17 09:11:00,
2013-10-17 05:12:00,45.1,43.6,29.86,WSW,243,2.5,2.5,94,0.00,,,0.00,0.00,VWS V14.01,2013-10-17 09:12:00,
2013-10-17 05:14:00,44.8,43.3,29.87,WSW,243,2.2,2.2,94,0.00,,,0.00,0.00,VWS V14.01,2013-10-17 09:14:00,
2013-10-17 05:15:00,44.8,43.3,29.87,WSW,243,2.2,2.2,94,0.00,,,0.00,0.00,VWS V14.01,2013-10-17 09:15:00,
2013-10-17 05:17:00,45.1,43.9,29.88,WSW,244,3.0,3.0,96,0.00,,,0.00,0.00,VWS V14.01,2013-10-17 09:17:00,
2013-10-17 05:18:00,45.2,44.0,29.87,WSW,244,2.7,3.0,96,0.00,,,0.00,0.00,VWS V14.01,2013-10-17 09:18:00,
2013-10-17 05:20:00,44.5,43.2,29.87,WSW,244,2.8,2.8,95,0.00,,,0.00,0.00,VWS V14.01,2013-10-17 09:20:00,
2013-10-17 05:21:00,44.6,43.3,29.87,WSW,249,2.8,2.8,95,0.00,,,0.00,0.12,VWS V14.01,2013-10-17 09:21:00,
2013-10-17 05:22:00,44.6,42.2,29.87,WSW,249,3.4,3.4,91,0.00,,,0.00,0.12,VWS V14.01,2013-10-17 09:22:00,
2013-10-17 05:24:00,44.5,43.3,29.88,WSW,248,2.8,3.2,96,0.00,,,0.00,0.00,VWS V14.01,2013-10-17 09:24:00,
2013-10-17 05:25:00,44.6,43.4,29.87,WSW,248,3.0,3.0,96,0.00,,,0.00,0.00,VWS V14.01,2013-10-17 09:25:00,
2013-10-17 05:26:00,44.2,43.0,29.87,WSW,257,2.8,3.0,95,0.00,,,0.00,0.73,VWS V14.01,2013-10-17 09:26:00,
2013-10-17 05:27:00,44.5,43.3,29.87,WSW,257,3.0,3.0,96,0.00,,,0.00,0.00,VWS V14.01,2013-10-17 09:27:00,
2013-10-17 05:30:00,44.7,43.7,29.92,WSW,251,2.5,2.5,96,0.00,,,0.00,0.00,VWS V14.01,2013-10-17 09:30:00,
2013-10-17 05:31:00,44.5,43.4,29.88,WSW,248,2.5,2.5,96,0.00,,,0.00,0.00,VWS V14.01,2013-10-17 09:31:00,
2013-10-17 05:33:00,44.2,43.1,29.87,West,262,3.2,3.2,96,0.00,,,0.00,0.00,VWS V14.01,2013-10-17 09:33:00,
2013-10-17 05:34:00,44.2,43.1,29.87,West,262,3.2,3.2,96,0.00,,,0.00,0.00,VWS V14.01,2013-10-17 09:34:00,
2013-10-17 05:36:00,44.3,43.5,29.91,West,266,2.3,3.2,97,0.00,,,0.00,0.00,VWS V14.01,2013-10-17 09:36:00,
2013-10-17 05:38:00,44.2,41.4,29.87,West,268,2.3,2.3,90,0.00,,,0.00,0.00,VWS V14.01,2013-10-17 09:38:00,
2013-10-17 05:39:00,44.5,43.7,29.88,West,268,2.5,2.5,97,0.00,,,0.00,0.00,VWS V14.01,2013-10-17 09:39:00,
2013-10-17 05:41:00,44.1,43.4,29.87,West,272,2.8,3.5,97,0.00,,,0.00,0.00,VWS V14.01,2013-10-17 09:41:00,
2013-10-17 05:42:00,44.3,43.6,29.88,West,272,2.2,3.0,97,0.00,,,0.00,0.00,VWS V14.01,2013-10-17 09:42:00,
2013-10-17 05:44:00,44.3,43.6,29.87,West,272,2.3,2.3,97,0.00,,,0.00,0.00,VWS V14.01,2013-10-17 09:44:00,
2013-10-17 05:45:00,44.0,43.2,29.87,West,272,2.0,2.3,97,0.00,,,0.00,0.00,VWS V14.01,2013-10-17 09:45:00,
2013-10-17 05:46:00,44.2,43.4,29.87,WSW,253,2.3,2.3,97,0.00,,,0.00,0.00,VWS V14.01,2013-10-17 09:46:00,
2013-10-17 05:50:00,43.5,42.8,29.88,WSW,242,0.0,0.0,97,0.00,,,0.00,0.43,VWS V14.01,2013-10-17 09:50:00,
2013-10-17 05:51:00,43.4,42.7,29.88,WSW,242,0.0,0.0,97,0.00,,,0.00,0.00,VWS V14.01,2013-10-17 09:51:00,
2013-10-17 05:53:00,43.2,42.5,29.88,WSW,242,0.0,2.0,98,0.00,,,0.00,0.73,VWS V14.01,2013-10-17 09:53:00,
2013-10-17 05:56:00,43.6,43.1,29.88,WSW,240,3.2,3.2,98,0.00,,,0.00,0.00,VWS V14.01,2013-10-17 09:56:00,
2013-10-17 05:57:00,43.6,43.2,29.88,WSW,241,3.0,3.2,98,0.00,,,0.00,0.00,VWS V14.01,2013-10-17 09:57:00,
2013-10-17 05:58:00,43.6,42.4,29.88,WSW,245,3.0,3.2,96,0.00,,,0.00,0.00,VWS V14.01,2013-10-17 09:58:00,
2013-10-17 06:01:00,43.9,43.6,29.88,WSW,240,3.0,3.0,99,0.00,,,0.00,0.43,VWS V14.01,2013-10-17 10:01:00,
2013-10-17 06:02:00,43.9,43.6,29.88,WSW,240,3.0,3.0,99,0.00,,,0.00,0.43,VWS V14.01,2013-10-17 10:02:00,
2013-10-17 06:04:00,42.9,42.6,29.87,WSW,239,1.5,3.0,99,0.00,,,0.00,0.00,VWS V14.01,2013-10-17 10:04:00,
2013-10-17 06:08:00,43.0,42.8,29.87,WSW,240,2.0,3.0,99,0.00,,,0.00,0.00,VWS V14.01,2013-10-17 10:08:00,
2013-10-17 06:09:00,43.3,43.1,29.87,WSW,247,2.8,3.0,99,0.00,,,0.00,0.06,VWS V14.01,2013-10-17 10:09:00,
2013-10-17 06:10:00,42.9,42.7,29.87,WSW,250,3.2,3.4,99,0.00,,,0.00,0.00,VWS V14.01,2013-10-17 10:10:00,
2013-10-17 06:13:00,43.1,42.9,29.88,WSW,245,3.7,3.7,99,0.00,,,0.00,0.00,VWS V14.01,2013-10-17 10:13:00,
2013-10-17 06:14:00,42.5,42.4,29.88,WSW,242,3.2,3.7,99,0.00,,,0.00,0.00,VWS V14.01,2013-10-17 10:14:00,
2013-10-17 06:15:00,42.5,42.3,29.87,WSW,242,3.0,3.7,99,0.00,,,0.00,0.00,VWS V14.01,2013-10-17 10:15:00,
2013-10-17 06:16:00,42.4,42.2,29.88,WSW,242,2.8,3.7,99,0.00,,,0.00,0.00,VWS V14.01,2013-10-17 10:16:00,
2013-10-17 06:18:00,42.3,42.2,29.89,WSW,242,2.2,3.7,99,0.00,,,0.00,0.00,VWS V14.01,2013-10-17 10:18:00,
2013-10-17 06:20:00,42.2,42.1,29.88,WSW,252,2.0,3.7,100,0.00,,,0.00,0.00,VWS V14.01,2013-10-17 10:20:00,
2013-10-17 06:21:00,42.5,42.4,29.89,WSW,252,0.0,3.7,100,0.00,,,0.00,0.00,VWS V14.01,2013-10-17 10:21:00,
2013-10-17 06:22:00,42.3,42.2,29.89,WSW,252,0.0,3.7,100,0.00,,,0.00,0.00,VWS V14.01,2013-10-17 10:22:00,
2013-10-17 06:23:00,42.4,42.3,29.89,WSW,252,0.0,3.7,100,0.00,,,0.00,0.43,VWS V14.01,2013-10-17 10:23:00,
2013-10-17 06:24:00,42.1,42.1,29.88,West,272,0.0,3.7,100,0.00,,,0.00,0.00,VWS V14.01,2013-10-17 10:24:00,
2013-10-17 06:26:00,42.3,42.3,29.88,West,272,0.0,3.7,100,0.00,,,0.00,0.00,VWS V14.01,2013-10-17 10:26:00,
2013-10-17 06:27:00,42.5,42.5,29.88,West,272,0.0,3.7,100,0.00,,,0.00,0.00,VWS V14.01,2013-10-17 10:27:00,
2013-10-17 06:28:00,42.0,42.0,29.89,West,272,0.0,3.7,100,0.00,,,0.00,0.00,VWS V14.01,2013-10-17 10:28:00,
2013-10-17 06:29:00,41.8,41.8,29.88,West,272,0.0,3.7,100,0.00,,,0.00,0.00,VWS V14.01,2013-10-17 10:29:00,
2013-10-17 06:32:00,41.9,41.9,29.89,West,272,0.0,3.7,100,0.00,,,0.00,0.00,VWS V14.01,2013-10-17 10:32:00,
2013-10-17 06:33:00,41.9,41.9,29.88,West,272,0.0,3.7,100,0.00,,,0.00,0.00,VWS V14.01,2013-10-17 10:33:00,
2013-10-17 06:34:00,41.4,41.4,29.88,West,272,0.0,3.7,100,0.00,,,0.00,0.00,VWS V14.01,2013-10-17 10:34:00,
2013-10-17 06:35:00,42.1,42.1,29.88,West,272,0.0,3.7,100,0.00,,,0.00,0.00,VWS V14.01,2013-10-17 10:35:00,
2013-10-17 06:37:00,42.3,42.3,29.88,West,272,0.0,3.7,100,0.00,,,0.00,0.00,VWS V14.01,2013-10-17 10:37:00,
2013-10-17 06:38:00,42.2,42.2,29.88,West,272,0.0,3.7,100,0.00,,,0.00,0.00,VWS V14.01,2013-10-17 10:38:00,
2013-10-17 06:40:00,42.6,42.6,29.88,West,272,0.0,3.7,100,0.00,,,0.00,0.00,VWS V14.01,2013-10-17 10:40:00,
2013-10-17 06:41:00,42.2,42.2,29.88,West,272,0.0,3.7,100,0.00,,,0.00,0.00,VWS V14.01,2013-10-17 10:41:00,
2013-10-17 06:43:00,42.6,42.6,29.89,West,272,0.0,3.7,100,0.00,,,0.00,0.00,VWS V14.01,2013-10-17 10:43:00,
2013-10-17 06:45:00,42.3,42.3,29.88,West,272,0.0,3.7,100,0.00,,,0.00,0.00,VWS V14.01,2013-10-17 10:45:00,
2013-10-17 06:46:00,41.6,41.6,29.88,West,270,0.0,3.7,100,0.00,,,0.00,0.00,VWS V14.01,2013-10-17 10:46:00,
2013-10-17 06:47:00,41.6,41.6,29.88,West,270,0.0,3.7,100,0.00,,,0.00,0.00,VWS V14.01,2013-10-17 10:47:00,
2013-10-17 06:48:00,41.6,41.6,29.88,West,270,0.0,3.7,100,0.00,,,0.00,0.00,VWS V14.01,2013-10-17 10:48:00,
2013-10-17 06:50:00,41.4,41.4,29.88,West,270,0.0,3.7,100,0.00,,,0.00,0.00,VWS V14.01,2013-10-17 10:50:00,
2013-10-17 06:52:00,41.1,41.1,29.88,West,270,0.0,3.7,100,0.00,,,0.00,0.00,VWS V14.01,2013-10-17 10:52:00,
2013-10-17 06:54:00,41.4,41.4,29.89,West,270,0.0,3.7,100,0.00,,,0.00,0.00,VWS V14.01,2013-10-17 10:54:00,
2013-10-17 06:55:00,41.8,41.8,29.88,West,270,0.0,3.7,100,0.00,,,0.00,0.00,VWS V14.01,2013-10-17 10:55:00,
2013-10-17 06:57:00,41.8,41.8,29.87,WSW,247,0.0,3.7,100,0.00,,,0.00,0.00,VWS V14.01,2013-10-17 10:57:00,
2013-10-17 06:59:00,42.6,42.6,29.89,SSW,199,0.0,3.7,100,0.00,,,0.00,0.00,VWS V14.01,2013-10-17 10:59:00,
2013-10-17 07:00:00,42.5,42.5,29.89,SSW,199,0.0,3.7,100,0.00,,,0.00,0.00,VWS V14.01,2013-10-17 11:00:00,
2013-10-17 07:01:00,42.3,42.3,29.88,SSW,199,0.0,3.7,100,0.00,,,0.00,0.00,VWS V14.01,2013-10-17 11:01:00,
2013-10-17 07:02:00,42.3,42.3,29.89,SSW,199,0.0,3.7,100,0.00,,,0.00,0.00,VWS V14.01,2013-10-17 11:02:00,
2013-10-17 07:05:00,42.0,42.0,29.88,SSW,199,0.0,3.7,100,0.00,,,0.00,0.00,VWS V14.01,2013-10-17 11:05:00,
2013-10-17 07:06:00,42.2,42.2,29.89,SSW,199,0.0,3.7,100,0.00,,,0.00,0.00,VWS V14.01,2013-10-17 11:06:00,
2013-10-17 07:08:00,42.7,42.7,29.88,WSW,249,0.0,0.0,100,0.00,,,0.00,0.00,VWS V14.01,2013-10-17 11:08:00,
2013-10-17 07:09:00,42.9,42.9,29.88,WSW,251,0.0,0.0,100,0.00,,,0.00,0.00,VWS V14.01,2013-10-17 11:09:00,
2013-10-17 07:11:00,42.9,42.9,29.87,NNW,334,0.0,0.0,100,0.00,,,0.00,0.00,VWS V14.01,2013-10-17 11:11:00,
2013-10-17 07:12:00,42.9,42.9,29.87,NNW,334,0.0,0.0,100,0.00,,,0.00,0.00,VWS V14.01,2013-10-17 11:12:00,
2013-10-17 07:13:00,42.9,42.9,29.88,WNW,303,0.0,0.0,100,0.00,,,0.00,0.00,VWS V14.01,2013-10-17 11:13:00,
2013-10-17 07:16:00,42.8,42.8,29.92,WNW,303,0.0,0.0,100,0.00,,,0.00,0.00,VWS V14.01,2013-10-17 11:16:00,
2013-10-17 07:17:00,42.8,42.8,29.89,WNW,303,0.0,0.0,100,0.00,,,0.00,0.00,VWS V14.01,2013-10-17 11:17:00,
2013-10-17 07:18:00,42.8,42.8,29.88,WNW,303,0.0,0.0,100,0.00,,,0.00,0.12,VWS V14.01,2013-10-17 11:18:00,
2013-10-17 07:20:00,42.8,42.8,29.87,WNW,303,0.0,0.0,100,0.00,,,0.00,0.00,VWS V14.01,2013-10-17 11:20:00,
2013-10-17 07:21:00,42.9,42.9,29.91,WNW,303,0.0,0.0,100,0.00,,,0.00,0.00,VWS V14.01,2013-10-17 11:21:00,
2013-10-17 07:22:00,42.9,42.9,29.88,WNW,303,0.0,0.0,100,0.00,,,0.00,0.00,VWS V14.01,2013-10-17 11:22:00,
2013-10-17 07:26:00,42.7,42.7,29.87,NE,41,0.0,0.0,100,0.00,,,0.00,0.00,VWS V14.01,2013-10-17 11:26:00,
2013-10-17 07:27:00,42.8,42.9,29.88,NE,40,0.0,0.0,100,0.00,,,0.00,0.00,VWS V14.01,2013-10-17 11:27:00,
2013-10-17 07:29:00,43.0,43.0,29.88,NE,41,0.0,0.0,100,0.00,,,0.00,0.00,VWS V14.01,2013-10-17 11:29:00,
2013-10-17 07:31:00,43.0,43.0,29.88,NE,40,0.0,0.0,100,0.00,,,0.00,0.00,VWS V14.01,2013-10-17 11:31:00,
2013-10-17 07:32:00,42.8,42.8,29.88,NE,42,0.0,0.0,100,0.00,,,0.00,0.00,VWS V14.01,2013-10-17 11:32:00,
2013-10-17 07:33:00,42.7,42.7,29.88,NE,40,0.0,0.0,100,0.00,,,0.00,0.73,VWS V14.01,2013-10-17 11:33:00,
2013-10-17 07:34:00,43.1,43.1,29.87,NE,39,0.0,0.0,100,0.00,,,0.00,0.00,VWS V14.01,2013-10-17 11:34:00,
2013-10-17 07:35:00,43.0,43.1,29.87,NE,40,0.0,0.0,100,0.00,,,0.00,0.43,VWS V14.01,2013-10-17 11:35:00,
2013-10-17 07:38:00,42.9,42.9,29.87,NE,40,0.0,0.0,100,0.00,,,0.00,0.00,VWS V14.01,2013-10-17 11:38:00,
2013-10-17 07:39:00,43.1,43.1,29.88,NE,42,0.0,0.0,100,0.00,,,0.00,0.00,VWS V14.01,2013-10-17 11:39:00,
2013-10-17 07:40:00,43.0,43.0,29.88,NE,40,0.0,0.0,100,0.00,,,0.00,0.00,VWS V14.01,2013-10-17 11:40:00,
2013-10-17 07:41:00,43.0,43.0,29.87,NE,40,0.0,0.0,100,0.00,,,0.00,1.22,VWS V14.01,2013-10-17 11:41:00,
2013-10-17 07:42:00,43.3,43.3,29.89,NNE,12,0.0,0.0,100,0.00,,,0.00,0.00,VWS V14.01,2013-10-17 11:42:00,
2013-10-17 07:44:00,43.3,43.3,29.88,NNE,12,0.0,0.0,100,0.00,,,0.00,0.55,VWS V14.01,2013-10-17 11:44:00,
2013-10-17 07:47:00,43.3,43.3,29.88,NNE,12,0.0,0.0,100,0.00,,,0.00,2.87,VWS V14.01,2013-10-17 11:47:00,
2013-10-17 07:49:00,43.3,43.3,29.88,NNE,12,0.0,0.0,100,0.00,,,0.00,2.26,VWS V14.01,2013-10-17 11:49:00,
2013-10-17 07:50:00,43.3,43.3,29.87,NNE,12,0.0,0.0,100,0.00,,,0.00,3.60,VWS V14.01,2013-10-17 11:50:00,
2013-10-17 07:53:00,43.4,43.4,29.88,NNE,12,0.0,0.0,100,0.00,,,0.00,5.62,VWS V14.01,2013-10-17 11:53:00,
2013-10-17 07:55:00,43.3,43.3,29.87,SSW,201,0.0,0.0,100,0.00,,,0.00,6.59,VWS V14.01,2013-10-17 11:55:00,
2013-10-17 07:56:00,43.2,43.2,29.88,SSW,201,0.0,0.0,100,0.00,,,0.00,7.14,VWS V14.01,2013-10-17 11:56:00,
2013-10-17 07:58:00,43.1,43.1,29.88,SSW,201,0.0,0.0,100,0.00,,,0.00,6.53,VWS V14.01,2013-10-17 11:58:00,
2013-10-17 08:01:00,43.2,43.2,29.88,SSW,201,0.0,0.0,100,0.00,,,0.00,4.95,VWS V14.01,2013-10-17 12:01:00,
2013-10-17 08:03:00,43.2,43.2,29.88,SSW,201,0.0,0.0,100,0.00,,,0.00,4.95,VWS V14.01,2013-10-17 12:03:00,
2013-10-17 08:04:00,43.2,43.2,29.88,SSW,201,0.0,0.0,100,0.00,,,0.00,4.95,VWS V14.01,2013-10-17 12:04:00,
2013-10-17 08:05:00,43.2,43.2,29.88,SSW,201,0.0,0.0,100,0.00,,,0.00,4.95,VWS V14.01,2013-10-17 12:05:00,
2013-10-17 08:06:00,43.2,43.2,29.88,SSW,201,0.0,0.0,100,0.00,,,0.00,4.95,VWS V14.01,2013-10-17 12:06:00,
2013-10-17 08:07:00,43.2,43.2,29.88,SSW,201,0.0,0.0,100,0.00,,,0.00,4.95,VWS V14.01,2013-10-17 12:07:00,
2013-10-17 08:08:00,43.2,43.2,29.88,SSW,201,0.0,0.0,100,0.00,,,0.00,4.95,VWS V14.01,2013-10-17 12:08:00,
2013-10-17 08:11:00,43.2,43.2,29.88,SSW,201,0.0,0.0,100,0.00,,,0.00,4.95,VWS V14.01,2013-10-17 12:11:00,
2013-10-17 08:13:00,43.2,43.2,29.88,SSW,201,0.0,0.0,100,0.00,,,0.00,4.95,VWS V14.01,2013-10-17 12:13:00,
2013-10-17 08:14:00,43.2,43.2,29.88,SSW,201,0.0,0.0,100,0.00,,,0.00,4.95,VWS V14.01,2013-10-17 12:14:00,
2013-10-17 08:16:00,43.2,43.2,29.88,SSW,201,0.0,0.0,100,0.00,,,0.00,4.95,VWS V14.01,2013-10-17 12:16:00,
2013-10-17 08:17:00,43.5,43.5,29.87,South,191,1.8,2.5,100,0.00,,,0.00,16.36,VWS V14.01,2013-10-17 12:17:00,
2013-10-17 08:18:00,43.6,43.6,29.87,South,191,0.0,2.5,100,0.00,,,0.00,16.61,VWS V14.01,2013-10-17 12:18:00,
2013-10-17 08:19:00,43.6,43.6,29.86,South,191,0.0,0.0,100,0.00,,,0.00,17.40,VWS V14.01,2013-10-17 12:19:00,
2013-10-17 08:23:00,43.5,43.5,29.87,SW,221,2.3,2.3,100,0.00,,,0.00,21.12,VWS V14.01,2013-10-17 12:23:00,
2013-10-17 08:24:00,43.5,43.5,29.86,SSW,202,2.5,2.7,100,0.00,,,0.00,22.04,VWS V14.01,2013-10-17 12:24:00,
2013-10-17 08:25:00,43.6,43.6,29.86,SSW,202,2.5,2.5,100,0.00,,,0.00,21.79,VWS V14.01,2013-10-17 12:25:00,
2013-10-17 08:29:00,43.6,43.6,29.87,SSW,205,3.0,3.0,100,0.00,,,0.00,24.18,VWS V14.01,2013-10-17 12:29:00,
2013-10-17 08:30:00,43.6,43.6,29.88,SW,217,2.7,3.0,100,0.00,,,0.00,26.68,VWS V14.01,2013-10-17 12:30:00,
2013-10-17 08:31:00,43.6,43.6,29.88,SW,217,3.2,3.2,100,0.00,,,0.00,30.95,VWS V14.01,2013-10-17 12:31:00,
2013-10-17 08:33:00,43.7,43.7,29.87,SW,215,3.5,3.9,100,0.00,,,0.00,31.56,VWS V14.01,2013-10-17 12:33:00,
2013-10-17 08:34:00,43.9,43.9,29.88,SSW,209,3.2,3.2,100,0.00,,,0.00,31.56,VWS V14.01,2013-10-17 12:34:00,
2013-10-17 08:36:00,44.0,44.0,29.88,SSW,200,3.7,4.4,100,0.00,,,0.00,37.18,VWS V14.01,2013-10-17 12:36:00,
2013-10-17 08:37:00,44.0,44.0,29.88,SSW,211,3.4,3.7,100,0.00,,,0.00,38.89,VWS V14.01,2013-10-17 12:37:00,
2013-10-17 08:38:00,44.2,44.2,29.88,SW,214,3.7,3.9,100,0.00,,,0.00,42.55,VWS V14.01,2013-10-17 12:38:00,
2013-10-17 08:39:00,44.1,44.1,29.88,SW,218,3.4,3.7,100,0.00,,,0.00,41.33,VWS V14.01,2013-10-17 12:39:00,
2013-10-17 08:41:00,44.2,44.2,29.87,SSW,195,2.7,2.7,100,0.00,,,0.00,36.45,VWS V14.01,2013-10-17 12:41:00,
2013-10-17 08:42:00,44.3,44.3,29.87,SSW,202,1.6,2.7,100,0.00,,,0.00,34.25,VWS V14.01,2013-10-17 12:42:00,
2013-10-17 08:44:00,44.3,44.3,29.87,SSW,200,1.3,2.2,100,0.00,,,0.00,33.76,VWS V14.01,2013-10-17 12:44:00,
2013-10-17 08:45:00,44.4,44.4,29.88,SSW,195,2.5,2.5,100,0.00,,,0.00,32.05,VWS V14.01,2013-10-17 12:45:00,
2013-10-17 08:46:00,44.4,44.4,29.88,SSW,206,2.0,2.5,100,0.00,,,0.00,31.56,VWS V14.01,2013-10-17 12:46:00,
2013-10-17 08:47:00,44.5,44.5,29.88,SW,230,3.4,3.4,100,0.00,,,0.00,30.10,VWS V14.01,2013-10-17 12:47:00,
2013-10-17 08:48:00,44.5,44.5,29.88,SW,224,3.9,3.9,100,0.00,,,0.00,30.95,VWS V14.01,2013-10-17 12:48:00,
2013-10-17 08:49:00,44.5,44.5,29.88,SW,235,4.4,4.4,100,0.00,,,0.00,33.15,VWS V14.01,2013-10-17 12:49:00,
2013-10-17 08:50:00,44.5,44.5,29.88,SW,233,4.2,4.4,100,0.00,,,0.00,34.98,VWS V14.01,2013-10-17 12:50:00,
2013-10-17 08:52:00,44.6,44.6,29.89,WSW,251,3.5,3.5,100,0.00,,,0.00,40.66,VWS V14.01,2013-10-17 12:52:00,
2013-10-17 08:53:00,44.6,44.6,29.89,SW,230,5.2,5.2,100,0.00,,,0.00,48.66,VWS V14.01,2013-10-17 12:53:00,
2013-10-17 08:54:00,44.9,44.9,29.89,SW,218,4.2,4.2,100,0.00,,,0.00,65.75,VWS V14.01,2013-10-17 12:54:00,
2013-10-17 08:55:00,45.0,45.0,29.89,SW,226,4.5,4.5,100,0.00,,,0.00,72.53,VWS V14.01,2013-10-17 12:55:00,
2013-10-17 08:58:00,44.9,44.9,29.89,WSW,256,4.0,4.7,100,0.00,,,0.00,71.61,VWS V14.01,2013-10-17 12:58:00,
2013-10-17 08:59:00,45.1,45.1,29.88,SW,217,4.2,4.2,100,0.00,,,0.00,66.24,VWS V14.01,2013-10-17 12:59:00,
2013-10-17 09:00:00,45.0,45.0,29.88,SW,230,4.7,4.7,100,0.00,,,0.00,63.31,VWS V14.01,2013-10-17 13:00:00,
2013-10-17 09:02:00,45.0,45.0,29.88,SW,230,4.7,4.7,100,0.00,,,0.00,63.31,VWS V14.01,2013-10-17 13:02:00,
2013-10-17 09:04:00,45.0,45.0,29.89,WSW,256,4.7,5.4,100,0.00,,,0.00,38.89,VWS V14.01,2013-10-17 13:04:00,
2013-10-17 09:05:00,45.2,45.1,29.89,SW,236,3.7,4.2,100,0.00,,,0.00,32.72,VWS V14.01,2013-10-17 13:05:00,
2013-10-17 09:07:00,45.0,44.9,29.89,SW,221,4.0,5.4,100,0.00,,,0.00,27.29,VWS V14.01,2013-10-17 13:07:00,
2013-10-17 09:09:00,45.0,44.8,29.89,WSW,248,4.2,4.2,99,0.00,,,0.00,19.47,VWS V14.01,2013-10-17 13:09:00,
2013-10-17 09:10:00,45.0,44.8,29.89,West,259,3.5,5.1,99,0.00,,,0.00,18.93,VWS V14.01,2013-10-17 13:10:00,
2013-10-17 09:12:00,45.0,44.8,29.88,WSW,253,2.5,2.5,99,0.00,,,0.00,12.58,VWS V14.01,2013-10-17 13:12:00,
2013-10-17 09:23:00,45.2,45.0,29.87,West,270,3.2,3.2,99,0.00,,,0.00,18.38,VWS V14.01,2013-10-17 13:23:00,
2013-10-17 09:28:00,45.5,45.2,29.88,WSW,257,3.4,3.5,99,0.00,,,0.00,20.27,VWS V14.01,2013-10-17 13:28:00,
2013-10-17 09:42:00,45.5,45.2,29.89,SW,228,6.3,6.3,99,0.00,,,0.00,26.68,VWS V14.01,2013-10-17 13:42:00,
2013-10-17 09:43:00,45.6,45.2,29.89,SW,232,3.5,5.2,99,0.00,,,0.00,21.98,VWS V14.01,2013-10-17 13:43:00,
2013-10-17 09:44:00,45.4,45.1,29.88,SW,226,3.9,4.5,99,0.00,,,0.00,19.60,VWS V14.01,2013-10-17 13:44:00,
2013-10-17 09:46:00,45.3,45.0,29.88,SW,223,3.9,3.9,99,0.00,,,0.00,21.79,VWS V14.01,2013-10-17 13:46:00,
2013-10-17 09:47:00,45.3,45.0,29.88,SW,214,4.4,4.4,99,0.00,,,0.00,22.77,VWS V14.01,2013-10-17 13:47:00,
2013-10-17 09:48:00,45.4,45.0,29.87,WSW,244,3.5,3.5,98,0.00,,,0.00,25.34,VWS V14.01,2013-10-17 13:48:00,
2013-10-17 09:49:00,45.4,45.0,29.87,WSW,248,3.4,3.4,98,0.00,,,0.00,26.68,VWS V14.01,2013-10-17 13:49:00,
2013-10-17 09:50:00,45.5,45.1,29.87,West,260,3.4,3.4,98,0.00,,,0.00,26.68,VWS V14.01,2013-10-17 13:50:00,
2013-10-17 09:51:00,45.5,45.1,29.87,WSW,255,0.0,2.8,98,0.00,,,0.00,22.71,VWS V14.01,2013-10-17 13:51:00,
2013-10-17 09:53:00,45.5,45.1,29.87,West,266,2.2,2.2,98,0.00,,,0.00,26.68,VWS V14.01,2013-10-17 13:53:00,
2013-10-17 09:55:00,45.6,45.2,29.87,West,265,1.3,2.2,99,0.00,,,0.00,26.07,VWS V14.01,2013-10-17 13:55:00,
2013-10-17 09:57:00,45.6,45.2,29.87,WSW,255,1.1,2.7,99,0.00,,,0.00,29.06,VWS V14.01,2013-10-17 13:57:00,
2013-10-17 10:00:00,45.6,45.3,29.87,West,278,3.0,3.0,99,0.00,,,0.00,34.00,VWS V14.01,2013-10-17 14:00:00,
2013-10-17 10:01:00,45.6,45.3,29.86,WSW,253,3.2,3.2,99,0.00,,,0.00,34.25,VWS V14.01,2013-10-17 14:01:00,
2013-10-17 10:02:00,45.6,45.3,29.90,West,259,4.4,4.4,99,0.00,,,0.00,35.41,VWS V14.01,2013-10-17 14:02:00,
2013-10-17 10:05:00,45.7,44.7,29.87,WSW,240,3.4,3.4,96,0.00,,,0.00,38.89,VWS V14.01,2013-10-17 14:05:00,
2013-10-17 10:07:00,45.6,45.3,29.87,West,259,4.5,4.5,99,0.00,,,0.00,43.77,VWS V14.01,2013-10-17 14:07:00,
2013-10-17 10:08:00,45.6,45.3,29.86,WSW,254,3.7,4.5,99,0.00,,,0.00,46.21,VWS V14.01,2013-10-17 14:08:00,
2013-10-17 10:09:00,45.9,45.6,29.85,West,268,2.7,3.4,99,0.00,,,0.00,47.74,VWS V14.01,2013-10-17 14:09:00,
2013-10-17 10:10:00,45.8,45.5,29.85,West,263,1.5,2.7,99,0.00,,,0.00,49.57,VWS V14.01,2013-10-17 14:10:00,
2013-10-17 10:12:00,45.9,45.7,29.85,WNW,285,1.8,2.5,99,0.00,,,0.00,52.75,VWS V14.01,2013-10-17 14:12:00,
2013-10-17 10:13:00,45.8,45.5,29.86,West,278,2.5,2.5,99,0.00,,,0.00,53.54,VWS V14.01,2013-10-17 14:13:00,
2013-10-17 10:14:00,45.7,45.3,29.86,WSW,244,2.8,4.4,99,0.04,,,0.04,53.54,VWS V14.01,2013-10-17 14:14:00,
2013-10-17 10:16:00,46.1,45.8,29.86,WSW,238,2.0,2.5,99,0.04,,,0.04,48.90,VWS V14.01,2013-10-17 14:16:00,
2013-10-17 10:18:00,46.0,45.7,29.86,SW,216,3.0,3.0,99,0.04,,,0.04,43.77,VWS V14.01,2013-10-17 14:18:00,
2013-10-17 10:21:00,46.0,45.7,29.87,WSW,238,4.9,4.9,99,0.04,,,0.04,43.77,VWS V14.01,2013-10-17 14:21:00,
2013-10-17 10:22:00,46.2,45.8,29.87,WSW,237,2.7,2.7,98,0.04,,,0.04,47.44,VWS V14.01,2013-10-17 14:22:00,
2013-10-17 10:23:00,46.1,45.7,29.87,SW,218,3.5,3.5,98,0.04,,,0.04,52.08,VWS V14.01,2013-10-17 14:23:00,
2013-10-17 10:24:00,46.3,45.9,29.89,SW,224,2.7,4.7,98,0.04,,,0.04,56.59,VWS V14.01,2013-10-17 14:24:00,
2013-10-17 10:27:00,46.2,45.8,29.85,SW,215,3.2,3.2,98,0.04,,,0.04,58.67,VWS V14.01,2013-10-17 14:27:00,
2013-10-17 10:28:00,46.1,45.7,29.86,WSW,237,4.9,4.9,98,0.04,,,0.04,57.69,VWS V14.01,2013-10-17 14:28:00,
2013-10-17 10:29:00,46.2,45.8,29.87,West,270,3.9,4.9,98,0.04,,,0.04,58.12,VWS V14.01,2013-10-17 14:29:00,
2013-10-17 10:30:00,46.1,45.5,29.86,SW,235,5.4,5.6,98,0.04,,,0.04,60.87,VWS V14.01,2013-10-17 14:30:00,
2013-10-17 10:32:00,46.2,45.6,29.86,WSW,242,3.0,3.0,98,0.04,,,0.04,51.10,VWS V14.01,2013-10-17 14:32:00,
2013-10-17 10:33:00,46.3,45.8,29.86,SW,232,2.7,3.2,98,0.04,,,0.04,45.48,VWS V14.01,2013-10-17 14:33:00,
2013-10-17 10:35:00,46.3,45.8,29.85,SSW,213,3.2,3.2,98,0.04,,,0.04,38.89,VWS V14.01,2013-10-17 14:35:00,
2013-10-17 10:36:00,46.2,45.7,29.85,WSW,237,4.2,4.2,98,0.04,,,0.04,36.45,VWS V14.01,2013-10-17 14:36:00,
2013-10-17 10:39:00,46.3,45.8,29.86,SW,228,2.5,3.7,98,0.04,,,0.04,28.51,VWS V14.01,2013-10-17 14:39:00,
2013-10-17 10:40:00,46.2,45.7,29.86,SW,223,3.9,3.9,98,0.04,,,0.04,29.12,VWS V14.01,2013-10-17 14:40:00,
2013-10-17 10:41:00,46.1,45.5,29.89,SW,225,3.7,3.7,98,0.04,,,0.04,29.37,VWS V14.01,2013-10-17 14:41:00,
2013-10-17 10:42:00,46.1,45.6,29.86,SW,236,4.0,4.0,98,0.04,,,0.04,30.04,VWS V14.01,2013-10-17 14:42:00,
2013-10-17 10:44:00,46.2,45.7,29.86,WSW,252,4.2,4.2,98,0.04,,,0.04,27.84,VWS V14.01,2013-10-17 14:44:00,
2013-10-17 10:46:00,46.3,45.8,29.85,WSW,254,4.0,4.0,98,0.04,,,0.04,27.17,VWS V14.01,2013-10-17 14:46:00,
2013-10-17 10:47:00,46.2,45.7,29.87,WSW,254,4.0,4.0,98,0.04,,,0.04,29.12,VWS V14.01,2013-10-17 14:47:00,
2013-10-17 10:48:00,46.2,45.8,29.86,WSW,253,3.5,4.0,98,0.04,,,0.04,28.63,VWS V14.01,2013-10-17 14:48:00,
2013-10-17 10:50:00,46.1,45.7,29.85,WSW,243,3.7,4.4,98,0.04,,,0.04,33.03,VWS V14.01,2013-10-17 14:50:00,
2013-10-17 10:51:00,46.3,45.9,29.86,WSW,242,2.7,3.7,98,0.08,,,0.08,34.49,VWS V14.01,2013-10-17 14:51:00,
2013-10-17 10:52:00,46.2,45.8,29.86,SW,225,4.0,4.0,98,0.08,,,0.08,37.67,VWS V14.01,2013-10-17 14:52:00,
2013-10-17 10:53:00,46.3,45.9,29.87,SW,228,4.9,4.9,98,0.08,,,0.08,39.13,VWS V14.01,2013-10-17 14:53:00,
2013-10-17 10:55:00,46.6,46.3,29.86,SW,225,0.0,3.2,99,0.08,,,0.08,51.10,VWS V14.01,2013-10-17 14:55:00,
2013-10-17 10:57:00,46.4,46.1,29.86,SSW,206,3.0,3.0,99,0.08,,,0.08,55.98,VWS V14.01,2013-10-17 14:57:00,
2013-10-17 10:58:00,46.5,46.1,29.86,WSW,237,3.7,4.4,99,0.08,,,0.08,55.56,VWS V14.01,2013-10-17 14:58:00,
2013-10-17 10:59:00,46.3,45.9,29.85,SSW,201,3.7,3.7,99,0.08,,,0.08,60.87,VWS V14.01,2013-10-17 14:59:00,
2013-10-17 11:03:00,46.3,45.9,29.84,South,185,4.5,4.5,99,0.08,,,0.08,63.92,VWS V14.01,2013-10-17 15:03:00,
2013-10-17 11:04:00,46.5,46.1,29.85,South,173,3.4,3.4,98,0.08,,,0.08,63.06,VWS V14.01,2013-10-17 15:04:00,
2013-10-17 11:05:00,46.5,46.0,29.84,SSW,202,2.8,3.4,98,0.08,,,0.08,65.75,VWS V14.01,2013-10-17 15:05:00,
2013-10-17 11:06:00,46.8,46.3,29.84,SW,224,1.8,2.8,98,0.08,,,0.08,68.80,VWS V14.01,2013-10-17 15:06:00,
2013-10-17 11:09:00,46.6,46.1,29.85,SSW,197,3.7,3.7,98,0.08,,,0.08,71.31,VWS V14.01,2013-10-17 15:09:00,
2013-10-17 11:10:00,46.6,46.0,29.85,SSW,203,3.5,3.5,98,0.08,,,0.08,74.30,VWS V14.01,2013-10-17 15:10:00,
2013-10-17 11:12:00,46.8,46.2,29.84,SW,215,3.4,3.4,98,0.08,,,0.08,80.34,VWS V14.01,2013-10-17 15:12:00,
2013-10-17 11:15:00,46.8,46.2,29.85,SSW,212,2.5,3.4,98,0.04,,,0.08,114.35,VWS V14.01,2013-10-17 15:15:00,
2013-10-17 11:16:00,47.0,46.5,29.85,SSW,209,2.7,2.7,98,0.04,,,0.08,113.61,VWS V14.01,2013-10-17 15:16:00,
2013-10-17 11:18:00,47.4,46.7,29.84,SSW,197,2.8,4.7,98,0.04,,,0.08,97.13,VWS V14.01,2013-10-17 15:18:00,
2013-10-17 11:19:00,47.3,46.7,29.84,SW,221,1.5,2.8,98,0.04,,,0.08,91.88,VWS V14.01,2013-10-17 15:19:00,
2013-10-17 11:21:00,47.2,46.5,29.85,SSW,205,1.1,4.0,98,0.04,,,0.08,80.40,VWS V14.01,2013-10-17 15:21:00,
2013-10-17 11:22:00,46.9,46.2,29.84,SSW,210,5.2,5.2,97,0.04,,,0.08,75.52,VWS V14.01,2013-10-17 15:22:00,
2013-10-17 11:24:00,46.8,45.9,29.85,SSW,208,4.9,4.9,97,0.04,,,0.08,60.56,VWS V14.01,2013-10-17 15:24:00,
2013-10-17 11:26:00,46.7,45.6,29.85,SSW,210,5.7,5.7,96,0.04,,,0.08,60.87,VWS V14.01,2013-10-17 15:26:00,
2013-10-17 11:27:00,46.9,45.8,29.85,SSW,210,4.2,4.2,96,0.04,,,0.08,63.55,VWS V14.01,2013-10-17 15:27:00,
2013-10-17 11:28:00,46.7,45.7,29.85,SW,219,5.1,5.1,96,0.04,,,0.08,63.55,VWS V14.01,2013-10-17 15:28:00,
2013-10-17 11:29:00,47.0,45.9,29.84,SSW,208,4.0,5.1,96,0.04,,,0.08,58.42,VWS V14.01,2013-10-17 15:29:00,
2013-10-17 11:30:00,47.1,46.1,29.83,SSW,193,2.7,4.0,96,0.04,,,0.08,56.96,VWS V14.01,2013-10-17 15:30:00,
2013-10-17 11:31:00,47.2,46.2,29.83,SSW,206,4.2,4.9,96,0.04,,,0.08,58.42,VWS V14.01,2013-10-17 15:31:00,
2013-10-17 11:32:00,46.8,45.7,29.84,SSW,211,5.6,5.6,96,0.04,,,0.08,65.02,VWS V14.01,2013-10-17 15:32:00,
2013-10-17 11:34:00,47.1,45.9,29.84,SW,224,4.9,5.6,96,0.04,,,0.08,68.93,VWS V14.01,2013-10-17 15:34:00,
2013-10-17 11:35:00,47.0,45.9,29.84,SSW,200,3.9,4.5,96,0.04,,,0.08,61.11,VWS V14.01,2013-10-17 15:35:00,
2013-10-17 11:36:00,46.9,45.8,29.84,SW,214,5.2,5.2,96,0.04,,,0.08,59.89,VWS V14.01,2013-10-17 15:36:00,
2013-10-17 11:40:00,46.9,45.9,29.85,SW,232,4.9,6.3,96,0.04,,,0.08,67.46,VWS V14.01,2013-10-17 15:40:00,
2013-10-17 11:41:00,46.9,45.8,29.84,SW,230,5.6,5.6,96,0.04,,,0.08,67.22,VWS V14.01,2013-10-17 15:41:00,
2013-10-17 11:42:00,47.0,45.9,29.88,SW,222,5.4,5.6,96,0.04,,,0.08,60.38,VWS V14.01,2013-10-17 15:42:00,
2013-10-17 11:44:00,47.1,46.0,29.85,SW,218,4.7,4.7,96,0.04,,,0.08,69.35,VWS V14.01,2013-10-17 15:44:00,
2013-10-17 11:46:00,47.1,46.0,29.83,SW,218,5.6,5.6,96,0.04,,,0.08,73.81,VWS V14.01,2013-10-17 15:46:00,
2013-10-17 11:47:00,47.0,46.0,29.84,WSW,242,5.2,5.6,96,0.04,,,0.08,73.08,VWS V14.01,2013-10-17 15:47:00,
2013-10-17 11:52:00,46.9,45.7,29.84,SW,227,7.6,7.8,95,0.04,,,0.12,36.14,VWS V14.01,2013-10-17 15:52:00,
2013-10-17 11:53:00,46.9,45.6,29.85,SW,217,8.5,8.5,95,0.04,,,0.12,29.12,VWS V14.01,2013-10-17 15:53:00,
2013-10-17 11:54:00,47.1,45.8,29.85,SW,233,3.4,8.5,95,0.04,,,0.12,23.93,VWS V14.01,2013-10-17 15:54:00,
2013-10-17 11:57:00,46.9,45.7,29.85,SW,221,5.1,5.1,96,0.04,,,0.12,29.12,VWS V14.01,2013-10-17 15:57:00,
2013-10-17 11:58:00,46.9,45.7,29.85,SW,221,5.1,5.1,96,0.04,,,0.12,29.12,VWS V14.01,2013-10-17 15:58:00,
2013-10-17 11:59:00,46.8,45.6,29.85,WSW,255,4.2,6.8,96,0.04,,,0.12,40.90,VWS V14.01,2013-10-17 15:59:00,
2013-10-17 12:01:00,46.8,45.7,29.89,WSW,240,7.8,7.8,96,0.04,,,0.00,41.33,VWS V14.01,2013-10-17 16:01:00,
2013-10-17 12:02:00,46.9,45.7,29.84,SW,226,8.0,8.0,96,0.04,,,0.12,69.17,VWS V14.01,2013-10-17 16:02:00,
2013-10-17 12:03:00,46.9,45.8,29.88,West,264,6.6,8.0,96,0.04,,,0.12,81.07,VWS V14.01,2013-10-17 16:03:00,
2013-10-17 12:04:00,47.0,45.8,29.85,WSW,244,6.6,6.6,96,0.04,,,0.12,99.88,VWS V14.01,2013-10-17 16:04:00,
2013-10-17 12:06:00,46.9,45.8,29.84,WSW,240,5.1,5.1,96,0.04,,,0.12,121.92,VWS V14.01,2013-10-17 16:06:00,
2013-10-17 12:07:00,47.4,46.2,29.84,SW,227,6.3,7.8,96,0.04,,,0.12,113.06,VWS V14.01,2013-10-17 16:07:00,
2013-10-17 12:08:00,47.0,45.8,29.84,WSW,240,6.8,6.8,96,0.04,,,0.12,82.84,VWS V14.01,2013-10-17 16:08:00,
2013-10-17 12:11:00,46.9,45.7,29.85,SW,229,6.6,6.8,95,0.04,,,0.12,51.59,VWS V14.01,2013-10-17 16:11:00,
2013-10-17 12:12:00,47.2,45.9,29.84,SW,235,5.2,6.6,95,0.04,,,0.12,62.33,VWS V14.01,2013-10-17 16:12:00,
2013-10-17 12:13:00,47.0,45.9,29.84,SSW,204,6.4,6.4,96,0.04,,,0.12,66.79,VWS V14.01,2013-10-17 16:13:00,
2013-10-17 12:17:00,47.1,45.9,29.84,SW,225,8.1,8.7,95,0.04,,,0.12,82.84,VWS V14.01,2013-10-17 16:17:00,
2013-10-17 12:19:00,47.2,46.0,29.85,SW,217,6.1,6.1,96,0.04,,,0.12,85.29,VWS V14.01,2013-10-17 16:19:00,
2013-10-17 12:20:00,47.2,46.0,29.85,SW,221,6.6,6.6,96,0.04,,,0.12,85.10,VWS V14.01,2013-10-17 16:20:00,
2013-10-17 12:21:00,47.1,45.9,29.84,SW,221,7.5,7.5,96,0.04,,,0.12,97.50,VWS V14.01,2013-10-17 16:21:00,
2013-10-17 12:22:00,47.4,46.2,29.84,SW,225,6.6,6.6,96,0.04,,,0.12,114.35,VWS V14.01,2013-10-17 16:22:00,
2013-10-17 12:24:00,47.7,46.4,29.85,SW,223,5.4,7.1,95,0.04,,,0.12,99.94,VWS V14.01,2013-10-17 16:24:00,
2013-10-17 12:25:00,47.6,46.4,29.83,SSW,211,5.4,5.4,95,0.04,,,0.12,91.64,VWS V14.01,2013-10-17 16:25:00,
2013-10-17 12:26:00,47.7,46.5,29.83,SW,222,4.0,5.4,96,0.04,,,0.12,98.90,VWS V14.01,2013-10-17 16:26:00,
2013-10-17 12:27:00,47.5,46.4,29.84,SW,228,5.2,5.2,96,0.04,,,0.12,90.42,VWS V14.01,2013-10-17 16:27:00,
2013-10-17 12:28:00,47.2,46.1,29.84,WSW,249,5.6,5.6,96,0.04,,,0.12,85.29,VWS V14.01,2013-10-17 16:28:00,
2013-10-17 12:29:00,47.2,44.3,29.83,SSW,211,8.0,8.0,89,0.04,,,0.12,74.79,VWS V14.01,2013-10-17 16:29:00,
2013-10-17 12:30:00,47.2,45.9,29.85,WSW,243,8.0,8.0,95,0.04,,,0.12,65.75,VWS V14.01,2013-10-17 16:30:00,
2013-10-17 12:31:00,47.1,45.0,29.84,SW,220,7.1,7.1,92,0.04,,,0.12,66.97,VWS V14.01,2013-10-17 16:31:00,
2013-10-17 12:33:00,46.8,45.4,29.84,WSW,250,8.0,9.2,95,0.04,,,0.12,75.52,VWS V14.01,2013-10-17 16:33:00,
2013-10-17 12:35:00,47.4,46.1,29.83,SW,236,4.2,6.9,95,0.04,,,0.12,76.98,VWS V14.01,2013-10-17 16:35:00,
2013-10-17 12:36:00,47.4,46.2,29.84,SW,235,4.5,5.2,96,0.04,,,0.12,89.26,VWS V14.01,2013-10-17 16:36:00,
2013-10-17 12:38:00,47.3,46.1,29.84,WSW,237,7.5,7.5,96,0.04,,,0.12,114.90,VWS V14.01,2013-10-17 16:38:00,
2013-10-17 12:40:00,47.7,46.4,29.83,SW,235,6.3,7.1,95,0.04,,,0.12,121.67,VWS V14.01,2013-10-17 16:40:00,
2013-10-17 12:41:00,47.9,46.7,29.84,SW,220,4.0,4.0,96,0.04,,,0.12,111.90,VWS V14.01,2013-10-17 16:41:00,
2013-10-17 12:43:00,47.5,46.3,29.83,WSW,244,4.9,7.5,95,0.04,,,0.12,95.06,VWS V14.01,2013-10-17 16:43:00,
2013-10-17 12:44:00,47.7,46.4,29.84,SW,230,6.1,6.1,95,0.04,,,0.12,96.76,VWS V14.01,2013-10-17 16:44:00,
2013-10-17 12:46:00,48.1,46.8,29.84,SW,233,4.4,6.6,95,0.04,,,0.12,112.39,VWS V14.01,2013-10-17 16:46:00,
2013-10-17 12:48:00,47.8,46.5,29.84,WSW,250,4.7,5.2,95,0.04,,,0.12,95.67,VWS V14.01,2013-10-17 16:48:00,
2013-10-17 12:50:00,47.9,46.5,29.84,SW,214,6.9,6.9,95,0.08,,,0.16,117.03,VWS V14.01,2013-10-17 16:50:00,
2013-10-17 12:52:00,47.8,46.2,29.84,WSW,245,3.2,6.3,94,0.08,,,0.16,124.60,VWS V14.01,2013-10-17 16:52:00,
2013-10-17 12:53:00,48.2,46.5,29.82,WSW,246,3.9,5.1,94,0.04,,,0.16,129.24,VWS V14.01,2013-10-17 16:53:00,
2013-10-17 12:55:00,48.0,46.4,29.84,SW,224,5.2,5.2,94,0.04,,,0.16,129.24,VWS V14.01,2013-10-17 16:55:00,
2013-10-17 12:56:00,47.9,46.2,29.83,SW,236,4.9,5.2,94,0.04,,,0.16,134.13,VWS V14.01,2013-10-17 16:56:00,
2013-10-17 12:57:00,47.9,46.2,29.84,SW,214,4.7,5.1,94,0.04,,,0.16,146.83,VWS V14.01,2013-10-17 16:57:00,
2013-10-17 12:58:00,47.6,45.9,29.83,WSW,240,5.4,7.1,94,0.04,,,0.16,129.24,VWS V14.01,2013-10-17 16:58:00,
2013-10-17 13:00:00,47.9,46.0,29.83,SW,225,6.6,7.1,93,0.04,,,0.16,109.65,VWS V14.01,2013-10-17 17:00:00,
2013-10-17 13:01:00,47.8,45.7,29.84,SW,225,6.9,7.5,93,0.04,,,0.16,103.66,VWS V14.01,2013-10-17 17:01:00,
2013-10-17 13:02:00,47.6,45.5,29.84,WSW,242,8.5,8.5,92,0.04,,,0.16,112.15,VWS V14.01,2013-10-17 17:02:00,
2013-10-17 13:03:00,47.8,44.7,29.83,WSW,242,5.9,6.6,89,0.04,,,0.16,117.09,VWS V14.01,2013-10-17 17:03:00,
2013-10-17 13:05:00,48.0,45.9,29.83,SSW,203,6.8,9.2,93,0.04,,,0.16,136.26,VWS V14.01,2013-10-17 17:05:00,
2013-10-17 13:06:00,47.7,45.5,29.83,SW,229,9.2,9.2,92,0.04,,,0.16,129.00,VWS V14.01,2013-10-17 17:06:00,
2013-10-17 13:07:00,47.8,45.4,29.83,SW,221,8.0,9.9,91,0.04,,,0.16,116.97,VWS V14.01,2013-10-17 17:07:00,
2013-10-17 13:09:00,47.5,45.3,29.83,WSW,253,8.7,8.7,92,0.04,,,0.16,103.30,VWS V14.01,2013-10-17 17:09:00,
2013-10-17 13:10:00,47.7,45.5,29.83,WSW,238,6.3,6.4,92,0.04,,,0.16,93.22,VWS V14.01,2013-10-17 17:10:00,
2013-10-17 13:12:00,48.0,45.8,29.83,West,276,5.2,6.3,92,0.04,,,0.16,97.50,VWS V14.01,2013-10-17 17:12:00,
2013-10-17 13:13:00,48.0,45.8,29.83,SW,226,5.6,7.8,92,0.04,,,0.16,92.86,VWS V14.01,2013-10-17 17:13:00,
2013-10-17 13:16:00,47.9,45.6,29.84,SW,222,7.8,10.0,92,0.04,,,0.16,80.28,VWS V14.01,2013-10-17 17:16:00,
2013-10-17 13:17:00,47.8,45.3,29.83,SW,235,8.8,8.8,91,0.04,,,0.16,77.96,VWS V14.01,2013-10-17 17:17:00,
2013-10-17 13:18:00,47.7,45.2,29.82,WSW,239,6.8,10.2,91,0.04,,,0.16,85.29,VWS V14.01,2013-10-17 17:18:00,
2013-10-17 13:21:00,47.8,45.1,29.83,SW,229,10.0,10.7,90,0.04,,,0.16,87.67,VWS V14.01,2013-10-17 17:21:00,
2013-10-17 13:22:00,48.0,45.4,29.83,WSW,237,5.4,10.0,91,0.04,,,0.16,101.83,VWS V14.01,2013-10-17 17:22:00,
2013-10-17 13:23:00,48.0,45.4,29.83,WSW,237,5.4,5.4,91,0.04,,,0.16,101.83,VWS V14.01,2013-10-17 17:23:00,
2013-10-17 13:24:00,47.8,45.3,29.82,WSW,239,7.8,8.1,91,0.04,,,0.16,100.85,VWS V14.01,2013-10-17 17:24:00,
2013-10-17 13:26:00,48.2,46.0,29.81,SW,222,6.1,7.8,92,0.04,,,0.16,97.74,VWS V14.01,2013-10-17 17:26:00,
2013-10-17 13:27:00,48.0,45.9,29.81,WSW,244,7.6,7.6,93,0.04,,,0.16,91.39,VWS V14.01,2013-10-17 17:27:00,
2013-10-17 13:28:00,48.1,45.8,29.82,SW,226,7.3,7.6,92,0.04,,,0.16,105.43,VWS V14.01,2013-10-17 17:28:00,
2013-10-17 13:29:00,48.2,46.2,29.82,SW,229,5.6,7.6,93,0.04,,,0.16,132.30,VWS V14.01,2013-10-17 17:29:00,
2013-10-17 13:30:00,48.1,46.1,29.82,SW,222,8.1,8.1,93,0.04,,,0.16,136.57,VWS V14.01,2013-10-17 17:30:00,
2013-10-17 13:32:00,48.4,46.1,29.82,SW,235,7.5,7.5,92,0.04,,,0.16,144.20,VWS V14.01,2013-10-17 17:32:00,
2013-10-17 13:33:00,48.3,45.9,29.82,SW,220,9.7,9.7,91,0.04,,,0.16,156.11,VWS V14.01,2013-10-17 17:33:00,
2013-10-17 13:34:00,48.3,45.9,29.82,SW,220,9.7,9.7,91,0.04,,,0.16,156.11,VWS V14.01,2013-10-17 17:34:00,
2013-10-17 13:35:00,48.3,45.9,29.82,SW,236,8.3,8.3,92,0.04,,,0.16,190.05,VWS V14.01,2013-10-17 17:35:00,
2013-10-17 13:38:00,49.0,46.6,29.82,SW,217,5.6,9.0,91,0.04,,,0.16,209.34,VWS V14.01,2013-10-17 17:38:00,
2013-10-17 13:39:00,49.0,46.6,29.81,SW,226,6.4,10.5,91,0.04,,,0.16,210.81,VWS V14.01,2013-10-17 17:39:00,
2013-10-17 13:40:00,48.5,46.1,29.81,WSW,254,6.9,6.9,91,0.04,,,0.16,210.44,VWS V14.01,2013-10-17 17:40:00,
2013-10-17 13:41:00,48.6,45.8,29.81,SW,226,9.2,9.2,90,0.04,,,0.16,221.73,VWS V14.01,2013-10-17 17:41:00,
2013-10-17 13:43:00,49.2,46.3,29.81,SW,236,6.9,6.9,90,0.04,,,0.16,222.04,VWS V14.01,2013-10-17 17:43:00,
2013-10-17 13:44:00,49.0,46.2,29.81,WSW,244,7.6,7.8,90,0.04,,,0.16,241.03,VWS V14.01,2013-10-17 17:44:00,
2013-10-17 13:45:00,49.5,46.7,29.80,SW,216,7.3,8.0,90,0.04,,,0.16,261.54,VWS V14.01,2013-10-17 17:45:00,
2013-10-17 13:47:00,49.1,46.1,29.80,SW,217,9.5,9.5,89,0.04,,,0.16,229.98,VWS V14.01,2013-10-17 17:47:00,
2013-10-17 13:48:00,49.2,45.8,29.81,SW,219,8.1,9.5,88,0.04,,,0.16,217.77,VWS V14.01,2013-10-17 17:48:00,
2013-10-17 13:49:00,49.1,45.9,29.80,SW,227,8.1,8.1,88,0.00,,,0.16,201.77,VWS V14.01,2013-10-17 17:49:00,
2013-10-17 13:50:00,49.2,46.1,29.80,SSW,201,10.0,10.0,89,0.00,,,0.16,176.25,VWS V14.01,2013-10-17 17:50:00,
2013-10-17 13:51:00,49.0,45.6,29.81,SW,224,6.9,7.8,88,0.00,,,0.16,143.16,VWS V14.01,2013-10-17 17:51:00,
2013-10-17 13:52:00,48.9,45.5,29.81,WSW,240,8.0,8.0,88,0.00,,,0.16,126.80,VWS V14.01,2013-10-17 17:52:00,
2013-10-17 13:53:00,48.9,45.5,29.81,WSW,240,8.0,8.0,88,0.00,,,0.16,126.80,VWS V14.01,2013-10-17 17:53:00,
2013-10-17 13:56:00,48.8,45.8,29.80,SW,228,8.7,8.8,90,0.00,,,0.16,70.63,VWS V14.01,2013-10-17 17:56:00,
2013-10-17 13:57:00,48.8,46.2,29.80,WSW,237,7.1,7.1,91,0.00,,,0.16,78.82,VWS V14.01,2013-10-17 17:57:00,
2013-10-17 13:59:00,48.9,46.4,29.81,SW,234,6.4,8.0,91,0.00,,,0.16,80.59,VWS V14.01,2013-10-17 17:59:00,
2013-10-17 14:00:00,48.8,46.1,29.80,SW,218,6.8,8.3,90,0.00,,,0.16,80.40,VWS V14.01,2013-10-17 18:00:00,
2013-10-17 14:02:00,48.5,45.0,29.80,WSW,239,9.3,10.9,88,0.00,,,0.16,68.50,VWS V14.01,2013-10-17 18:02:00,
2013-10-17 14:03:00,48.5,44.7,29.80,WSW,238,13.3,13.3,87,0.00,,,0.16,66.48,VWS V14.01,2013-10-17 18:03:00,
2013-10-17 14:05:00,48.4,44.6,29.81,WSW,245,12.4,12.4,87,0.00,,,0.16,68.93,VWS V14.01,2013-10-17 18:05:00,
2013-10-17 14:06:00,48.3,44.7,29.80,West,259,10.9,10.9,87,0.00,,,0.16,53.85,VWS V14.01,2013-10-17 18:06:00,
2013-10-17 14:08:00,48.5,45.0,29.81,SW,236,7.6,11.2,88,0.00,,,0.16,58.42,VWS V14.01,2013-10-17 18:08:00,
2013-10-17 14:11:00,48.5,45.3,29.80,WSW,238,8.1,8.8,88,0.00,,,0.16,75.70,VWS V14.01,2013-10-17 18:11:00,
2013-10-17 14:12:00,48.4,45.3,29.80,WSW,249,6.9,8.1,89,0.00,,,0.16,75.52,VWS V14.01,2013-10-17 18:12:00,
2013-10-17 14:14:00,48.4,45.7,29.80,WSW,242,5.1,5.7,90,0.00,,,0.16,87.73,VWS V14.01,2013-10-17 18:14:00,
2013-10-17 14:15:00,48.7,45.8,29.80,SW,223,7.1,7.1,90,0.00,,,0.16,87.73,VWS V14.01,2013-10-17 18:15:00,
2013-10-17 14:17:00,48.5,45.3,29.80,SW,230,11.9,11.9,88,0.00,,,0.16,82.84,VWS V14.01,2013-10-17 18:17:00,
2013-10-17 14:18:00,48.5,45.2,29.80,SW,224,9.3,11.9,88,0.00,,,0.16,84.98,VWS V14.01,2013-10-17 18:18:00,
2013-10-17 14:20:00,48.7,45.4,29.80,SW,230,7.8,11.2,88,0.00,,,0.16,121.92,VWS V14.01,2013-10-17 18:20:00,
2013-10-17 14:21:00,48.7,45.6,29.80,WSW,239,6.3,7.8,89,0.00,,,0.16,129.24,VWS V14.01,2013-10-17 18:21:00,
2013-10-17 14:23:00,48.9,45.9,29.83,SW,235,8.1,8.1,89,0.00,,,0.16,142.06,VWS V14.01,2013-10-17 18:23:00,
2013-10-17 14:25:00,49.1,46.1,29.80,West,260,8.8,8.8,89,0.00,,,0.16,163.13,VWS V14.01,2013-10-17 18:25:00,
2013-10-17 14:26:00,49.2,45.9,29.79,WSW,249,7.8,10.4,89,0.00,,,0.16,170.76,VWS V14.01,2013-10-17 18:26:00,
2013-10-17 14:27:00,49.2,45.9,29.79,WSW,249,7.8,10.4,89,0.00,,,0.16,170.76,VWS V14.01,2013-10-17 18:27:00,
2013-10-17 14:28:00,49.3,46.3,29.79,SW,236,6.1,7.8,89,0.00,,,0.16,136.26,VWS V14.01,2013-10-17 18:28:00,
2013-10-17 14:30:00,49.2,46.2,29.78,WSW,240,7.1,7.1,89,0.00,,,0.16,119.17,VWS V14.01,2013-10-17 18:30:00,
2013-10-17 14:31:00,48.9,45.9,29.79,SW,220,8.7,8.7,89,0.00,,,0.16,126.80,VWS V14.01,2013-10-17 18:31:00,
2013-10-17 14:33:00,49.4,46.5,29.80,SSW,213,6.4,6.4,90,0.00,,,0.16,137.18,VWS V14.01,2013-10-17 18:33:00,
2013-10-17 14:34:00,49.1,46.1,29.80,SW,222,8.3,8.3,89,0.00,,,0.16,117.03,VWS V14.01,2013-10-17 18:34:00,
2013-10-17 14:35:00,49.3,46.2,29.78,SW,225,6.3,9.7,89,0.00,,,0.16,109.71,VWS V14.01,2013-10-17 18:35:00,
2013-10-17 14:36:00,49.4,46.7,29.79,West,265,4.4,6.3,90,0.00,,,0.16,108.67,VWS V14.01,2013-10-17 18:36:00,
2013-10-17 14:37:00,49.2,46.2,29.80,West,260,7.1,7.1,89,0.00,,,0.16,106.35,VWS V14.01,2013-10-17 18:37:00,
2013-10-17 14:39:00,49.0,45.4,29.79,WSW,251,9.2,9.2,87,0.00,,,0.16,86.51,VWS V14.01,2013-10-17 18:39:00,
2013-10-17 14:40:00,49.0,43.7,29.79,SW,228,7.6,7.6,82,0.00,,,0.16,88.03,VWS V14.01,2013-10-17 18:40:00,
2013-10-17 14:41:00,49.0,45.7,29.80,SW,228,7.6,7.6,88,0.00,,,0.16,97.50,VWS V14.01,2013-10-17 18:41:00,
2013-10-17 14:42:00,48.9,44.4,29.79,SW,228,10.7,10.7,84,0.00,,,0.16,87.73,VWS V14.01,2013-10-17 18:42:00,
2013-10-17 14:44:00,48.8,45.5,29.80,SW,222,8.8,8.8,88,0.00,,,0.16,68.19,VWS V14.01,2013-10-17 18:44:00,
2013-10-17 14:46:00,48.8,45.8,29.79,WSW,246,6.4,6.4,89,0.00,,,0.16,46.21,VWS V14.01,2013-10-17 18:46:00,
2013-10-17 14:47:00,48.8,45.9,29.79,SW,224,9.5,9.5,90,0.00,,,0.16,34.25,VWS V14.01,2013-10-17 18:47:00,
2013-10-17 14:49:00,48.6,45.8,29.79,West,260,5.9,8.8,90,0.00,,,0.16,36.45,VWS V14.01,2013-10-17 18:49:00,
2013-10-17 14:51:00,48.7,44.9,29.79,WSW,253,8.3,8.3,87,0.00,,,0.16,39.87,VWS V14.01,2013-10-17 18:51:00,
2013-10-17 14:52:00,48.6,45.6,29.79,West,266,6.8,8.3,89,0.00,,,0.16,36.14,VWS V14.01,2013-10-17 18:52:00,
2013-10-17 14:53:00,48.6,45.6,29.79,West,274,7.5,7.5,89,0.00,,,0.16,34.00,VWS V14.01,2013-10-17 18:53:00,
2013-10-17 14:56:00,48.6,45.2,29.79,SSW,205,9.0,10.2,88,0.00,,,0.16,38.89,VWS V14.01,2013-10-17 18:56:00,
2013-10-17 14:57:00,48.5,45.2,29.78,West,275,9.7,9.7,88,0.00,,,0.16,41.33,VWS V14.01,2013-10-17 18:57:00,
2013-10-17 14:58:00,48.7,45.3,29.78,WSW,258,12.6,12.6,88,0.00,,,0.16,49.27,VWS V14.01,2013-10-17 18:58:00,
2013-10-17 14:59:00,48.7,45.2,29.77,SW,234,11.7,11.7,88,0.00,,,0.16,51.10,VWS V14.01,2013-10-17 18:59:00,
2013-10-17 15:00:00,48.5,44.9,29.78,WSW,245,6.6,10.2,87,0.00,,,0.16,56.53,VWS V14.01,2013-10-17 19:00:00,
2013-10-17 15:02:00,48.7,45.0,29.78,WSW,255,10.7,10.7,87,0.00,,,0.16,60.07,VWS V14.01,2013-10-17 19:02:00,
2013-10-17 15:04:00,48.6,45.0,29.78,WSW,249,7.5,9.9,87,0.00,,,0.16,63.92,VWS V14.01,2013-10-17 19:04:00,
2013-10-17 15:07:00,48.6,45.6,29.78,SW,225,6.6,6.6,89,0.00,,,0.16,54.27,VWS V14.01,2013-10-17 19:07:00,
2013-10-17 15:08:00,48.7,46.0,29.79,SW,228,5.2,5.2,90,0.00,,,0.16,41.33,VWS V14.01,2013-10-17 19:08:00,
2013-10-17 15:09:00,48.7,46.0,29.79,SW,228,5.2,5.2,90,0.00,,,0.16,41.33,VWS V14.01,2013-10-17 19:09:00,
2013-10-17 15:10:00,48.4,45.4,29.78,WSW,256,10.0,11.9,90,0.00,,,0.16,53.54,VWS V14.01,2013-10-17 19:10:00,
2013-10-17 15:12:00,48.3,45.3,29.79,WSW,249,12.1,12.9,89,0.00,,,0.16,70.39,VWS V14.01,2013-10-17 19:12:00,
2013-10-17 15:15:00,48.3,45.4,29.78,WSW,249,9.5,9.5,90,0.00,,,0.16,65.51,VWS V14.01,2013-10-17 19:15:00,
2013-10-17 15:16:00,48.3,45.6,29.77,WSW,240,6.9,8.8,90,0.00,,,0.16,56.29,VWS V14.01,2013-10-17 19:16:00,
2013-10-17 15:18:00,48.2,45.7,29.78,WSW,238,8.7,8.7,91,0.00,,,0.16,48.66,VWS V14.01,2013-10-17 19:18:00,
2013-10-17 15:20:00,48.2,45.8,29.78,WSW,253,7.8,9.3,91,0.00,,,0.16,42.06,VWS V14.01,2013-10-17 19:20:00,
2013-10-17 15:21:00,48.2,45.9,29.77,WNW,282,7.8,7.8,92,0.00,,,0.16,47.92,VWS V14.01,2013-10-17 19:21:00,
2013-10-17 15:24:00,48.0,46.0,29.77,West,271,10.9,10.9,93,0.00,,,0.16,21.55,VWS V14.01,2013-10-17 19:24:00,
2013-10-17 15:25:00,48.0,45.9,29.79,WSW,247,11.2,11.2,93,0.00,,,0.16,24.24,VWS V14.01,2013-10-17 19:25:00,
2013-10-17 15:26:00,47.9,45.9,29.79,SW,232,10.7,10.7,93,0.00,,,0.16,26.92,VWS V14.01,2013-10-17 19:26:00,
2013-10-17 15:27:00,47.9,46.1,29.78,West,261,6.8,6.8,93,0.00,,,0.16,38.89,VWS V14.01,2013-10-17 19:27:00,
2013-10-17 15:29:00,48.1,46.3,29.78,WSW,246,7.5,11.1,93,0.00,,,0.16,63.55,VWS V14.01,2013-10-17 19:29:00,
2013-10-17 15:30:00,48.1,46.3,29.78,WSW,246,7.5,7.5,93,0.00,,,0.16,63.55,VWS V14.01,2013-10-17 19:30:00,
2013-10-17 15:32:00,48.4,46.5,29.79,WSW,247,6.1,8.5,93,0.00,,,0.16,73.69,VWS V14.01,2013-10-17 19:32:00,
2013-10-17 15:35:00,48.3,45.5,29.78,West,268,12.6,13.6,90,0.00,,,0.16,123.87,VWS V14.01,2013-10-17 19:35:00,
2013-10-17 15:37:00,48.4,45.2,29.78,West,265,9.5,12.6,89,0.00,,,0.16,146.34,VWS V14.01,2013-10-17 19:37:00,
2013-10-17 15:39:00,48.7,45.0,29.77,WNW,292,11.6,11.6,87,0.00,,,0.16,170.76,VWS V14.01,2013-10-17 19:39:00,
2013-10-17 15:42:00,48.9,45.5,29.78,WNW,284,9.5,9.5,88,0.00,,,0.16,173.44,VWS V14.01,2013-10-17 19:42:00,
2013-10-17 15:43:00,48.9,45.5,29.78,WNW,284,9.5,9.5,88,0.00,,,0.16,173.44,VWS V14.01,2013-10-17 19:43:00,
2013-10-17 15:44:00,49.0,45.1,29.78,WNW,284,9.0,10.5,86,0.00,,,0.16,183.58,VWS V14.01,2013-10-17 19:44:00,
2013-10-17 15:45:00,49.2,45.4,29.78,West,274,6.4,8.8,87,0.00,,,0.16,183.70,VWS V14.01,2013-10-17 19:45:00,
2013-10-17 15:48:00,49.1,45.2,29.78,West,280,9.2,9.2,86,0.00,,,0.16,170.76,VWS V14.01,2013-10-17 19:48:00,
2013-10-17 15:49:00,49.3,45.2,29.78,West,267,12.4,12.4,86,0.00,,,0.16,153.42,VWS V14.01,2013-10-17 19:49:00,
2013-10-17 15:50:00,49.3,44.8,29.78,West,269,10.4,12.4,84,0.00,,,0.16,146.64,VWS V14.01,2013-10-17 19:50:00,
2013-10-17 15:51:00,49.2,43.8,29.77,WNW,297,12.9,12.9,82,0.00,,,0.16,135.84,VWS V14.01,2013-10-17 19:51:00,
2013-10-17 15:52:00,49.0,43.7,29.77,WNW,302,9.0,12.9,82,0.00,,,0.16,140.48,VWS V14.01,2013-10-17 19:52:00,
2013-10-17 15:54:00,49.4,44.3,29.77,WSW,248,10.4,10.4,83,0.00,,,0.16,137.79,VWS V14.01,2013-10-17 19:54:00,
2013-10-17 15:55:00,49.3,43.5,29.77,WSW,241,11.4,11.4,80,0.00,,,0.16,128.94,VWS V14.01,2013-10-17 19:55:00,
2013-10-17 15:56:00,49.2,43.7,29.79,WSW,250,13.8,13.8,81,0.00,,,0.16,131.69,VWS V14.01,2013-10-17 19:56:00,
2013-10-17 15:58:00,49.3,44.0,29.78,West,263,9.3,9.3,82,0.00,,,0.16,126.50,VWS V14.01,2013-10-17 19:58:00,
2013-10-17 16:00:00,49.3,43.5,29.77,WSW,242,9.9,11.2,80,0.00,,,0.16,125.03,VWS V14.01,2013-10-17 20:00:00,
2013-10-17 16:01:00,49.3,43.1,29.78,WSW,251,13.6,13.6,79,0.00,,,0.16,122.41,VWS V14.01,2013-10-17 20:01:00,
2013-10-17 16:02:00,49.2,42.9,29.78,West,279,10.0,13.6,79,0.00,,,0.16,119.47,VWS V14.01,2013-10-17 20:02:00,
2013-10-17 16:03:00,49.2,42.5,29.78,SW,232,10.0,13.5,78,0.00,,,0.16,105.92,VWS V14.01,2013-10-17 20:03:00,
2013-10-17 16:07:00,49.1,42.2,29.77,WSW,240,11.7,11.7,77,0.00,,,0.16,84.80,VWS V14.01,2013-10-17 20:07:00,
2013-10-17 16:08:00,49.1,42.5,29.78,WSW,257,8.5,11.7,78,0.00,,,0.16,72.10,VWS V14.01,2013-10-17 20:08:00,
2013-10-17 16:09:00,49.2,43.2,29.81,West,262,7.8,8.5,80,0.00,,,0.16,66.36,VWS V14.01,2013-10-17 20:09:00,
2013-10-17 16:10:00,49.1,43.2,29.79,WSW,252,10.4,10.4,80,0.00,,,0.16,63.80,VWS V14.01,2013-10-17 20:10:00,
2013-10-17 16:11:00,49.0,42.3,29.78,West,271,9.9,9.9,78,0.00,,,0.16,55.49,VWS V14.01,2013-10-17 20:11:00,
2013-10-17 16:13:00,49.0,43.1,29.78,West,271,8.7,8.7,80,0.00,,,0.16,59.16,VWS V14.01,2013-10-17 20:13:00,
2013-10-17 16:14:00,49.0,43.1,29.78,West,261,8.3,8.7,80,0.00,,,0.16,87.97,VWS V14.01,2013-10-17 20:14:00,
2013-10-17 16:15:00,49.0,43.0,29.77,West,269,7.3,9.0,80,0.00,,,0.16,117.64,VWS V14.01,2013-10-17 20:15:00,
2013-10-17 16:16:00,49.2,43.2,29.78,West,270,6.8,9.3,80,0.00,,,0.16,128.94,VWS V14.01,2013-10-17 20:16:00,
2013-10-17 16:18:00,49.2,42.6,29.78,WSW,256,8.3,9.5,78,0.00,,,0.16,125.27,VWS V14.01,2013-10-17 20:18:00,
2013-10-17 16:19:00,49.2,42.6,29.78,WSW,256,8.3,9.5,78,0.00,,,0.16,125.27,VWS V14.01,2013-10-17 20:19:00,
2013-10-17 16:20:00,49.4,43.1,29.78,WSW,255,10.0,10.0,79,0.00,,,0.16,118.56,VWS V14.01,2013-10-17 20:20:00,
2013-10-17 16:22:00,49.5,44.2,29.78,West,273,5.9,7.1,82,0.00,,,0.16,120.45,VWS V14.01,2013-10-17 20:22:00,
2013-10-17 16:23:00,49.5,44.6,29.77,West,261,3.5,5.9,83,0.00,,,0.16,127.29,VWS V14.01,2013-10-17 20:23:00,
2013-10-17 16:24:00,49.8,45.1,29.78,West,278,5.9,5.9,84,0.00,,,0.16,146.34,VWS V14.01,2013-10-17 20:24:00,
2013-10-17 16:27:00,49.5,44.3,29.78,West,277,8.8,8.8,82,0.00,,,0.16,140.96,VWS V14.01,2013-10-17 20:27:00,
2013-10-17 16:28:00,49.6,43.7,29.78,WSW,254,5.6,5.6,80,0.00,,,0.16,136.57,VWS V14.01,2013-10-17 20:28:00,
2013-10-17 16:29:00,49.6,43.3,29.77,WSW,253,6.1,6.1,79,0.00,,,0.16,131.38,VWS V14.01,2013-10-17 20:29:00,
2013-10-17 16:30:00,50.0,44.4,29.77,West,261,3.5,6.1,81,0.00,,,0.16,129.55,VWS V14.01,2013-10-17 20:30:00,
2013-10-17 16:32:00,49.6,44.0,29.78,WSW,255,5.1,7.6,81,0.00,,,0.16,119.78,VWS V14.01,2013-10-17 20:32:00,
2013-10-17 16:35:00,49.8,44.3,29.76,West,275,8.0,8.0,81,0.00,,,0.16,121.92,VWS V14.01,2013-10-17 20:35:00,
2013-10-17 16:37:00,49.5,42.5,29.77,WNW,291,10.5,10.5,77,0.00,,,0.16,110.87,VWS V14.01,2013-10-17 20:37:00,
2013-10-17 16:38:00,49.7,43.5,29.77,WSW,256,7.3,7.3,79,0.00,,,0.16,98.17,VWS V14.01,2013-10-17 20:38:00,
2013-10-17 16:39:00,49.5,42.4,29.77,WSW,255,10.7,10.7,76,0.00,,,0.16,105.43,VWS V14.01,2013-10-17 20:39:00,
2013-10-17 16:40:00,49.7,42.9,29.77,West,264,8.5,10.7,77,0.00,,,0.16,109.71,VWS V14.01,2013-10-17 20:40:00,
2013-10-17 16:41:00,49.7,42.9,29.77,West,264,8.5,10.7,77,0.00,,,0.16,109.71,VWS V14.01,2013-10-17 20:41:00,
2013-10-17 16:43:00,49.6,42.3,29.77,West,267,7.8,7.8,76,0.00,,,0.16,143.65,VWS V14.01,2013-10-17 20:43:00,
2013-10-17 16:44:00,49.7,42.6,29.77,WSW,255,7.1,7.1,76,0.00,,,0.16,152.50,VWS V14.01,2013-10-17 20:44:00,
2013-10-17 16:46:00,49.8,43.0,29.77,WSW,240,9.9,9.9,77,0.00,,,0.16,148.78,VWS V14.01,2013-10-17 20:46:00,
2013-10-17 16:47:00,50.0,42.9,29.78,SW,236,9.5,9.5,76,0.00,,,0.16,141.76,VWS V14.01,2013-10-17 20:47:00,
2013-10-17 16:48:00,49.8,42.7,29.77,WSW,249,8.5,9.5,77,0.00,,,0.16,136.26,VWS V14.01,2013-10-17 20:48:00,
2013-10-17 16:49:00,49.6,42.4,29.77,WSW,246,10.5,10.5,76,0.00,,,0.16,119.72,VWS V14.01,2013-10-17 20:49:00,
2013-10-17 16:50:00,49.7,42.7,29.78,WSW,243,8.7,10.5,77,0.00,,,0.16,111.66,VWS V14.01,2013-10-17 20:50:00,
2013-10-17 16:52:00,49.3,41.9,29.78,West,261,7.8,10.7,75,0.00,,,0.16,82.84,VWS V14.01,2013-10-17 20:52:00,
2013-10-17 16:53:00,49.3,42.2,29.78,SW,225,10.5,10.5,76,0.00,,,0.16,67.64,VWS V14.01,2013-10-17 20:53:00,
2013-10-17 16:54:00,49.1,42.2,29.80,WSW,257,9.3,11.1,77,0.00,,,0.16,51.10,VWS V14.01,2013-10-17 20:54:00,
2013-10-17 16:55:00,49.2,42.2,29.78,SW,228,13.3,13.3,77,0.00,,,0.16,46.95,VWS V14.01,2013-10-17 20:55:00,
2013-10-17 16:57:00,49.1,42.2,29.77,WSW,248,11.7,11.7,77,0.00,,,0.16,36.45,VWS V14.01,2013-10-17 20:57:00,
2013-10-17 16:58:00,48.9,42.2,29.77,West,263,7.3,11.7,78,0.00,,,0.16,36.20,VWS V14.01,2013-10-17 20:58:00,
2013-10-17 16:59:00,48.8,42.6,29.76,SW,235,5.6,7.3,79,0.00,,,0.16,36.32,VWS V14.01,2013-10-17 20:59:00,
2013-10-17 17:00:00,48.8,42.8,29.76,WSW,257,7.3,8.3,80,0.00,,,0.16,34.00,VWS V14.01,2013-10-17 21:00:00,
2013-10-17 17:01:00,48.8,42.6,29.77,West,279,6.6,10.4,79,0.00,,,0.16,33.52,VWS V14.01,2013-10-17 21:01:00,
2013-10-17 17:03:00,48.8,43.1,29.77,WSW,254,8.1,8.1,81,0.00,,,0.16,28.57,VWS V14.01,2013-10-17 21:03:00,
2013-10-17 17:05:00,48.7,42.8,29.80,WSW,253,10.0,13.3,80,0.00,,,0.16,27.29,VWS V14.01,2013-10-17 21:05:00,
2013-10-17 17:06:00,48.6,43.2,29.77,WSW,255,10.7,13.3,81,0.00,,,0.16,35.23,VWS V14.01,2013-10-17 21:06:00,
2013-10-17 17:07:00,48.6,43.0,29.77,WNW,300,11.1,13.3,81,0.00,,,0.16,41.82,VWS V14.01,2013-10-17 21:07:00,
2013-10-17 17:09:00,48.5,43.7,29.78,WSW,248,8.3,14.6,83,0.00,,,0.16,40.60,VWS V14.01,2013-10-17 21:09:00,
2013-10-17 17:10:00,48.5,43.7,29.78,WSW,248,8.3,14.6,83,0.00,,,0.16,40.60,VWS V14.01,2013-10-17 21:10:00,
2013-10-17 17:12:00,48.5,44.5,29.78,West,259,7.1,14.6,86,0.00,,,0.16,68.56,VWS V14.01,2013-10-17 21:12:00,
2013-10-17 17:13:00,48.5,44.6,29.78,West,264,8.7,14.6,86,0.00,,,0.16,80.10,VWS V14.01,2013-10-17 21:13:00,
2013-10-17 17:14:00,48.7,45.1,29.77,West,278,7.6,14.6,87,0.00,,,0.16,102.38,VWS V14.01,2013-10-17 21:14:00,
2013-10-17 17:15:00,48.5,44.9,29.77,West,273,10.2,14.6,87,0.00,,,0.16,109.40,VWS V14.01,2013-10-17 21:15:00,
2013-10-17 17:16:00,48.8,45.2,29.76,West,260,10.2,14.6,87,0.00,,,0.16,115.81,VWS V14.01,2013-10-17 21:16:00,
2013-10-17 17:17:00,48.7,45.3,29.77,West,274,9.2,14.6,88,0.00,,,0.16,102.08,VWS V14.01,2013-10-17 21:17:00,
2013-10-17 17:18:00,48.7,45.3,29.77,West,274,9.2,14.6,88,0.00,,,0.16,102.08,VWS V14.01,2013-10-17 21:18:00,
2013-10-17 17:19:00,48.8,45.4,29.77,WSW,252,7.1,14.6,88,0.00,,,0.16,85.90,VWS V14.01,2013-10-17 21:19:00,
2013-10-17 17:21:00,48.8,45.4,29.77,West,261,5.4,14.6,88,0.00,,,0.16,76.01,VWS V14.01,2013-10-17 21:21:00,
2013-10-17 17:24:00,48.8,45.4,29.78,WSW,243,6.1,14.6,88,0.00,,,0.16,115.20,VWS V14.01,2013-10-17 21:24:00,
2013-10-17 17:25:00,48.8,45.2,29.77,West,260,6.1,14.6,87,0.00,,,0.16,141.15,VWS V14.01,2013-10-17 21:25:00,
2013-10-17 17:29:00,49.0,45.0,29.77,WSW,253,9.9,14.6,86,0.00,,,0.16,114.90,VWS V14.01,2013-10-17 21:29:00,
2013-10-17 17:30:00,49.2,45.2,29.77,West,268,5.6,14.6,86,0.00,,,0.16,110.56,VWS V14.01,2013-10-17 21:30:00,
2013-10-17 17:31:00,49.2,45.5,29.77,West,269,6.4,14.6,87,0.00,,,0.16,148.78,VWS V14.01,2013-10-17 21:31:00,
2013-10-17 17:32:00,49.3,45.3,29.78,West,273,7.8,14.6,86,0.00,,,0.16,92.25,VWS V14.01,2013-10-17 21:32:00,
2013-10-17 17:34:00,49.2,44.4,29.77,WSW,251,9.7,14.6,83,0.00,,,0.16,83.76,VWS V14.01,2013-10-17 21:34:00,
2013-10-17 17:35:00,49.1,44.5,29.77,WSW,241,7.6,14.6,84,0.00,,,0.16,66.48,VWS V14.01,2013-10-17 21:35:00,
2013-10-17 17:37:00,49.0,43.6,29.78,WSW,241,8.3,14.6,81,0.00,,,0.16,61.42,VWS V14.01,2013-10-17 21:37:00,
2013-10-17 17:38:00,49.1,43.0,29.77,WSW,256,8.5,14.6,79,0.00,,,0.16,64.96,VWS V14.01,2013-10-17 21:38:00,
2013-10-17 17:41:00,49.0,42.4,29.77,West,268,10.5,14.6,78,0.00,,,0.16,68.80,VWS V14.01,2013-10-17 21:41:00,
2013-10-17 17:42:00,49.3,43.2,29.77,West,264,9.2,14.6,79,0.00,,,0.16,181.81,VWS V14.01,2013-10-17 21:42:00,
2013-10-17 17:43:00,49.5,43.1,29.77,WSW,251,8.1,14.6,78,0.00,,,0.16,199.57,VWS V14.01,2013-10-17 21:43:00,
2013-10-17 17:44:00,49.7,42.9,29.76,West,260,8.5,14.6,77,0.00,,,0.16,200.06,VWS V14.01,2013-10-17 21:44:00,
2013-10-17 17:45:00,49.9,43.1,29.76,WSW,248,7.1,14.6,78,0.00,,,0.16,184.43,VWS V14.01,2013-10-17 21:45:00,
2013-10-17 17:47:00,49.6,42.0,29.78,West,261,6.8,14.6,75,0.00,,,0.16,146.09,VWS V14.01,2013-10-17 21:47:00,
2013-10-17 17:49:00,49.6,41.5,29.77,West,267,12.1,14.6,73,0.00,,,0.16,79.18,VWS V14.01,2013-10-17 21:49:00,
2013-10-17 17:50:00,49.6,41.0,29.77,WSW,251,12.1,14.6,72,0.00,,,0.16,153.36,VWS V14.01,2013-10-17 21:50:00,
2013-10-17 17:51:00,49.1,40.8,29.78,West,259,10.0,14.6,73,0.00,,,0.16,58.18,VWS V14.01,2013-10-17 21:51:00,
2013-10-17 17:52:00,49.1,40.8,29.78,West,259,10.0,14.6,73,0.00,,,0.16,58.18,VWS V14.01,2013-10-17 21:52:00,
2013-10-17 17:55:00,49.0,37.6,29.77,WSW,252,8.3,14.6,65,0.00,,,0.16,48.05,VWS V14.01,2013-10-17 21:55:00,
2013-10-17 17:57:00,48.9,40.0,29.77,WSW,240,12.8,14.6,71,0.00,,,0.16,36.20,VWS V14.01,2013-10-17 21:57:00,
2013-10-17 17:58:00,48.6,40.1,29.77,West,259,6.3,14.6,72,0.00,,,0.16,29.79,VWS V14.01,2013-10-17 21:58:00,
2013-10-17 18:00:00,48.7,40.1,29.77,WSW,245,10.2,14.6,72,0.00,,,0.00,20.57,VWS V14.01,2013-10-17 22:00:00,
2013-10-17 18:01:00,48.7,39.8,29.76,West,269,14.1,14.6,71,0.00,,,0.16,19.29,VWS V14.01,2013-10-17 22:01:00,
2013-10-17 18:03:00,48.7,40.3,29.78,West,269,11.4,11.4,73,0.00,,,0.16,19.96,VWS V14.01,2013-10-17 22:03:00,
2013-10-17 18:04:00,48.7,40.4,29.77,West,260,10.4,10.4,73,0.00,,,0.16,19.35,VWS V14.01,2013-10-17 22:04:00,
2013-10-17 18:05:00,48.4,40.3,29.77,West,273,6.4,10.4,73,0.00,,,0.16,18.38,VWS V14.01,2013-10-17 22:05:00,
2013-10-17 18:06:00,49.0,40.8,29.78,West,274,10.7,10.7,73,0.00,,,0.16,16.91,VWS V14.01,2013-10-17 22:06:00,
2013-10-17 18:08:00,48.5,40.8,29.78,WSW,254,10.7,10.7,75,0.00,,,0.16,11.05,VWS V14.01,2013-10-17 22:08:00,
2013-10-17 18:09:00,48.5,40.7,29.77,West,264,9.0,10.7,74,0.00,,,0.16,9.58,VWS V14.01,2013-10-17 22:09:00,
2013-10-17 18:11:00,48.5,40.5,29.77,West,269,8.7,10.4,74,0.00,,,0.16,8.55,VWS V14.01,2013-10-17 22:11:00,
2013-10-17 18:14:00,48.4,40.6,29.77,WSW,239,10.5,10.5,74,0.00,,,0.16,9.58,VWS V14.01,2013-10-17 22:14:00,
2013-10-17 18:16:00,48.5,40.6,29.77,WSW,254,10.0,13.6,74,0.00,,,0.16,10.07,VWS V14.01,2013-10-17 22:16:00,
2013-10-17 18:17:00,48.5,40.6,29.77,WSW,254,10.0,13.6,74,0.00,,,0.16,10.07,VWS V14.01,2013-10-17 22:17:00,
2013-10-17 18:19:00,48.5,40.8,29.78,WSW,244,9.3,9.3,75,0.00,,,0.16,8.55,VWS V14.01,2013-10-17 22:19:00,
2013-10-17 18:20:00,48.7,41.1,29.77,WSW,244,9.5,10.9,75,0.00,,,0.16,6.59,VWS V14.01,2013-10-17 22:20:00,
2013-10-17 18:22:00,48.5,40.5,29.78,WSW,240,10.0,10.2,74,0.00,,,0.16,4.70,VWS V14.01,2013-10-17 22:22:00,
2013-10-17 18:23:00,48.5,40.5,29.78,WSW,240,10.0,10.2,74,0.00,,,0.16,4.70,VWS V14.01,2013-10-17 22:23:00,
2013-10-17 18:25:00,48.2,40.5,29.78,West,275,8.5,10.7,75,0.00,,,0.16,4.70,VWS V14.01,2013-10-17 22:25:00,
2013-10-17 18:26:00,48.4,40.9,29.78,West,262,8.8,10.9,75,0.00,,,0.16,4.70,VWS V14.01,2013-10-17 22:26:00,
2013-10-17 18:28:00,48.7,41.0,29.78,WSW,255,12.9,12.9,74,0.00,,,0.16,5.62,VWS V14.01,2013-10-17 22:28:00,
2013-10-17 18:32:00,48.2,40.9,29.78,WNW,290,7.1,8.3,76,0.00,,,0.16,4.21,VWS V14.01,2013-10-17 22:32:00,
2013-10-17 18:33:00,48.1,41.4,29.79,WSW,248,8.0,8.0,78,0.00,,,0.16,3.05,VWS V14.01,2013-10-17 22:33:00,
2013-10-17 18:34:00,48.4,41.6,29.78,West,269,12.1,12.1,77,0.00,,,0.16,2.99,VWS V14.01,2013-10-17 22:34:00,
2013-10-17 18:35:00,48.4,41.0,29.82,WSW,255,9.7,9.7,75,0.00,,,0.16,2.50,VWS V14.01,2013-10-17 22:35:00,
2013-10-17 18:37:00,48.3,40.6,29.78,West,261,7.8,7.8,75,0.00,,,0.16,2.26,VWS V14.01,2013-10-17 22:37:00,
2013-10-17 18:39:00,48.5,40.8,29.79,SW,232,11.2,11.2,74,0.00,,,0.16,3.11,VWS V14.01,2013-10-17 22:39:00,
2013-10-17 18:40:00,48.2,40.5,29.79,West,273,8.3,11.2,74,0.00,,,0.16,1.95,VWS V14.01,2013-10-17 22:40:00,
2013-10-17 18:41:00,48.6,40.7,29.78,WNW,290,12.9,13.3,74,0.00,,,0.16,2.50,VWS V14.01,2013-10-17 22:41:00,
2013-10-17 18:43:00,48.3,40.6,29.79,West,265,6.9,9.5,75,0.00,,,0.16,1.95,VWS V14.01,2013-10-17 22:43:00,
2013-10-17 18:45:00,48.6,41.0,29.79,West,273,11.9,11.9,75,0.00,,,0.16,2.26,VWS V14.01,2013-10-17 22:45:00,
2013-10-17 18:46:00,48.4,41.0,29.79,WSW,256,8.5,11.9,75,0.00,,,0.16,2.26,VWS V14.01,2013-10-17 22:46:00,
2013-10-17 18:48:00,48.4,41.0,29.79,West,272,9.9,10.7,76,0.00,,,0.16,2.50,VWS V14.01,2013-10-17 22:48:00,
2013-10-17 18:50:00,48.4,40.9,29.78,WSW,256,7.3,12.6,75,0.00,,,0.16,2.87,VWS V14.01,2013-10-17 22:50:00,
2013-10-17 18:51:00,48.5,41.0,29.78,WSW,255,6.4,7.3,75,0.00,,,0.16,2.87,VWS V14.01,2013-10-17 22:51:00,
2013-10-17 18:53:00,48.5,41.2,29.78,WSW,245,9.3,9.3,76,0.00,,,0.16,2.26,VWS V14.01,2013-10-17 22:53:00,
2013-10-17 18:56:00,48.4,41.6,29.79,WSW,247,8.8,8.8,77,0.00,,,0.16,1.71,VWS V14.01,2013-10-17 22:56:00,
2013-10-17 18:57:00,48.3,41.5,29.78,WSW,248,7.3,8.8,77,0.00,,,0.16,1.28,VWS V14.01,2013-10-17 22:57:00,
2013-10-17 18:58:00,48.2,41.4,29.79,West,273,7.5,7.5,77,0.00,,,0.16,0.79,VWS V14.01,2013-10-17 22:58:00,
2013-10-17 18:59:00,48.2,41.4,29.79,West,273,7.5,7.5,77,0.00,,,0.16,0.79,VWS V14.01,2013-10-17 22:59:00,
2013-10-17 19:01:00,48.4,41.8,29.79,WNW,298,9.2,9.7,78,0.00,,,0.16,0.06,VWS V14.01,2013-10-17 23:01:00,
2013-10-17 19:02:00,48.4,41.2,29.79,West,273,9.9,11.1,76,0.00,,,0.16,0.00,VWS V14.01,2013-10-17 23:02:00,
2013-10-17 19:06:00,48.3,41.5,29.81,WSW,256,7.8,8.8,77,0.00,,,0.16,0.00,VWS V14.01,2013-10-17 23:06:00,
2013-10-17 19:07:00,48.8,41.6,29.81,WSW,246,11.2,11.2,76,0.00,,,0.16,0.00,VWS V14.01,2013-10-17 23:07:00,
2013-10-17 19:08:00,48.3,41.3,29.79,WSW,258,8.1,8.1,77,0.00,,,0.16,0.00,VWS V14.01,2013-10-17 23:08:00,
2013-10-17 19:10:00,48.8,41.3,29.79,West,259,14.0,14.0,75,0.00,,,0.16,0.00,VWS V14.01,2013-10-17 23:10:00,
2013-10-17 19:12:00,48.3,40.8,29.79,WSW,250,7.3,12.1,75,0.00,,,0.16,0.00,VWS V14.01,2013-10-17 23:12:00,
2013-10-17 19:13:00,48.5,40.7,29.80,WSW,253,10.2,10.2,74,0.00,,,0.16,0.00,VWS V14.01,2013-10-17 23:13:00,
2013-10-17 19:14:00,48.4,40.5,29.80,WSW,253,10.2,11.6,74,0.00,,,0.16,0.00,VWS V14.01,2013-10-17 23:14:00,
2013-10-17 19:16:00,48.4,38.0,29.80,West,268,8.3,11.6,67,0.00,,,0.16,0.00,VWS V14.01,2013-10-17 23:16:00,
2013-10-17 19:17:00,48.5,40.6,29.81,West,259,11.9,11.9,74,0.00,,,0.16,0.00,VWS V14.01,2013-10-17 23:17:00,
2013-10-17 19:18:00,48.3,40.6,29.80,WNW,282,6.8,11.9,75,0.00,,,0.16,0.73,VWS V14.01,2013-10-17 23:18:00,
2013-10-17 19:20:00,48.7,40.9,29.80,WSW,258,9.9,11.7,74,0.00,,,0.16,0.00,VWS V14.01,2013-10-17 23:20:00,
2013-10-17 19:22:00,48.5,40.2,29.84,WSW,253,11.4,11.4,73,0.00,,,0.16,0.00,VWS V14.01,2013-10-17 23:22:00,
2013-10-17 19:23:00,48.5,40.1,29.81,WNW,289,8.7,8.7,73,0.00,,,0.16,0.43,VWS V14.01,2013-10-17 23:23:00,
2013-10-17 19:25:00,48.4,40.3,29.81,West,262,9.2,9.2,73,0.00,,,0.16,0.00,VWS V14.01,2013-10-17 23:25:00,
2013-10-17 19:26:00,48.3,40.3,29.81,West,271,8.5,12.1,74,0.00,,,0.16,0.12,VWS V14.01,2013-10-17 23:26:00,
2013-10-17 19:27:00,48.3,40.3,29.81,West,271,8.5,8.5,74,0.00,,,0.16,0.12,VWS V14.01,2013-10-17 23:27:00,
2013-10-17 19:29:00,48.8,40.5,29.81,West,279,14.5,14.5,73,0.00,,,0.16,0.00,VWS V14.01,2013-10-17 23:29:00,
2013-10-17 19:30:00,48.5,40.8,29.81,WNW,284,9.7,14.5,74,0.00,,,0.16,0.67,VWS V14.01,2013-10-17 23:30:00,
2013-10-17 19:32:00,48.5,39.5,29.81,WSW,258,11.4,11.4,71,0.00,,,0.16,0.00,VWS V14.01,2013-10-17 23:32:00,
2013-10-17 19:33:00,48.5,40.7,29.81,West,261,12.1,12.1,74,0.00,,,0.16,0.00,VWS V14.01,2013-10-17 23:33:00,
2013-10-17 19:35:00,48.1,40.8,29.82,West,271,6.1,9.0,76,0.00,,,0.16,0.43,VWS V14.01,2013-10-17 23:35:00,
2013-10-17 19:36:00,48.1,41.0,29.82,WSW,242,7.3,7.3,76,0.00,,,0.16,0.00,VWS V14.01,2013-10-17 23:36:00,
2013-10-17 19:37:00,48.2,40.7,29.81,West,274,8.5,8.5,75,0.00,,,0.16,0.00,VWS V14.01,2013-10-17 23:37:00,
2013-10-17 19:38:00,48.3,41.2,29.81,West,264,8.8,9.9,76,0.00,,,0.16,0.43,VWS V14.01,2013-10-17 23:38:00,
2013-10-17 19:40:00,48.4,41.2,29.81,West,275,9.2,10.2,76,0.00,,,0.16,0.00,VWS V14.01,2013-10-17 23:40:00,
2013-10-17 19:41:00,48.3,41.1,29.80,West,274,10.2,10.2,76,0.00,,,0.16,0.43,VWS V14.01,2013-10-17 23:41:00,
2013-10-17 19:42:00,48.1,41.0,29.81,West,274,9.0,10.2,76,0.00,,,0.16,0.00,VWS V14.01,2013-10-17 23:42:00,
2013-10-17 19:43:00,48.3,41.5,29.81,West,262,11.7,11.7,77,0.00,,,0.16,0.00,VWS V14.01,2013-10-17 23:43:00,
2013-10-17 19:44:00,48.0,41.9,29.82,WSW,241,6.4,6.6,79,0.00,,,0.16,0.00,VWS V14.01,2013-10-17 23:44:00,
2013-10-17 19:47:00,47.9,42.1,29.82,West,272,6.4,6.4,80,0.00,,,0.16,0.43,VWS V14.01,2013-10-17 23:47:00,
2013-10-17 19:48:00,47.8,42.2,29.82,West,266,7.6,7.6,81,0.00,,,0.16,0.00,VWS V14.01,2013-10-17 23:48:00,
2013-10-17 19:49:00,48.1,42.5,29.82,West,267,11.1,11.1,81,0.00,,,0.16,0.00,VWS V14.01,2013-10-17 23:49:00,
2013-10-17 19:52:00,47.8,42.4,29.82,West,276,9.2,9.2,81,0.00,,,0.16,0.43,VWS V14.01,2013-10-17 23:52:00,
2013-10-17 19:53:00,47.5,42.4,29.83,West,259,8.5,9.9,82,0.00,,,0.16,0.18,VWS V14.01,2013-10-17 23:53:00,
2013-10-17 19:54:00,47.4,42.4,29.82,WSW,253,7.5,8.5,83,0.00,,,0.16,0.00,VWS V14.01,2013-10-17 23:54:00,
2013-10-17 19:55:00,47.6,42.8,29.82,WNW,292,10.5,10.5,83,0.00,,,0.16,0.00,VWS V14.01,2013-10-17 23:55:00,
2013-10-17 19:58:00,47.6,43.1,29.83,West,269,10.2,10.2,84,0.00,,,0.16,0.00,VWS V14.01,2013-10-17 23:58:00,
2013-10-17 19:59:00,47.4,43.0,29.83,SW,236,8.1,8.1,84,0.00,,,0.16,0.37,VWS V14.01,2013-10-17 23:59:00,
2013-10-17 20:00:00,47.5,43.3,29.82,WSW,245,9.7,9.7,85,0.00,,,0.16,0.00,VWS V14.01,2013-10-18 00:00:00,
2013-10-17 20:04:00,47.4,43.7,29.83,WNW,288,6.6,8.1,87,0.00,,,0.16,0.00,VWS V14.01,2013-10-18 00:04:00,
2013-10-17 20:05:00,47.6,43.8,29.83,WNW,282,10.2,10.2,87,0.00,,,0.16,0.00,VWS V14.01,2013-10-18 00:05:00,
2013-10-17 20:09:00,47.7,43.3,29.82,West,274,12.1,12.1,84,0.00,,,0.16,0.00,VWS V14.01,2013-10-18 00:09:00,
2013-10-17 20:10:00,47.4,42.9,29.83,West,264,9.2,9.2,84,0.00,,,0.16,0.00,VWS V14.01,2013-10-18 00:10:00,
2013-10-17 20:11:00,47.5,43.2,29.82,WSW,253,7.5,9.2,85,0.00,,,0.16,0.00,VWS V14.01,2013-10-18 00:11:00,
2013-10-17 20:13:00,47.4,43.1,29.83,West,266,9.2,9.7,85,0.00,,,0.16,0.00,VWS V14.01,2013-10-18 00:13:00,
2013-10-17 20:14:00,47.5,43.1,29.83,West,270,9.5,9.5,84,0.00,,,0.16,0.00,VWS V14.01,2013-10-18 00:14:00,
2013-10-17 20:15:00,47.2,42.9,29.83,WSW,255,6.3,9.5,85,0.00,,,0.16,0.00,VWS V14.01,2013-10-18 00:15:00,
2013-10-17 20:16:00,47.2,43.0,29.83,West,266,5.6,6.3,85,0.00,,,0.16,0.00,VWS V14.01,2013-10-18 00:16:00,
2013-10-17 20:17:00,47.4,43.0,29.83,West,277,7.6,7.6,85,0.00,,,0.16,0.00,VWS V14.01,2013-10-18 00:17:00,
2013-10-17 20:20:00,47.5,43.0,29.83,West,269,9.3,9.5,84,0.00,,,0.16,0.00,VWS V14.01,2013-10-18 00:20:00,
2013-10-17 20:21:00,47.5,43.2,29.83,West,260,8.3,8.3,85,0.00,,,0.16,0.43,VWS V14.01,2013-10-18 00:21:00,
2013-10-17 20:23:00,47.8,42.9,29.82,WSW,258,10.5,11.1,83,0.00,,,0.16,0.00,VWS V14.01,2013-10-18 00:23:00,
2013-10-17 20:24:00,48.0,42.9,29.82,WSW,257,12.6,12.6,82,0.00,,,0.16,0.00,VWS V14.01,2013-10-18 00:24:00,
2013-10-17 20:25:00,48.1,42.7,29.83,West,271,14.6,14.6,81,0.00,,,0.16,0.00,VWS V14.01,2013-10-18 00:25:00,
2013-10-17 20:26:00,47.7,42.2,29.83,WNW,286,13.8,13.8,81,0.00,,,0.16,0.00,VWS V14.01,2013-10-18 00:26:00,
2013-10-17 20:27:00,47.4,41.9,29.84,West,270,8.8,13.8,81,0.00,,,0.16,0.73,VWS V14.01,2013-10-18 00:27:00,
2013-10-17 20:28:00,47.5,42.1,29.84,WNW,283,9.3,9.3,81,0.00,,,0.16,0.00,VWS V14.01,2013-10-18 00:28:00,
2013-10-17 20:29:00,47.6,42.3,29.84,West,278,10.5,10.5,82,0.00,,,0.16,0.12,VWS V14.01,2013-10-18 00:29:00,
2013-10-17 20:30:00,47.6,42.2,29.83,WSW,257,11.1,12.8,81,0.00,,,0.16,0.43,VWS V14.01,2013-10-18 00:30:00,
2013-10-17 20:31:00,47.6,42.0,29.84,West,281,11.7,11.7,81,0.00,,,0.16,0.00,VWS V14.01,2013-10-18 00:31:00,
2013-10-17 20:33:00,47.3,41.9,29.83,WNW,286,7.5,7.5,81,0.00,,,0.16,0.00,VWS V14.01,2013-10-18 00:33:00,
2013-10-17 20:34:00,47.7,42.3,29.84,West,263,10.5,10.5,82,0.00,,,0.16,0.00,VWS V14.01,2013-10-18 00:34:00,
2013-10-17 20:35:00,47.3,41.8,29.84,West,263,7.1,7.1,81,0.00,,,0.16,0.43,VWS V14.01,2013-10-18 00:35:00,
2013-10-17 20:36:00,47.7,42.4,29.83,West,279,9.9,9.9,82,0.00,,,0.16,0.00,VWS V14.01,2013-10-18 00:36:00,
2013-10-17 20:37:00,47.5,42.2,29.83,West,266,11.2,11.2,81,0.00,,,0.16,0.00,VWS V14.01,2013-10-18 00:37:00,
2013-10-17 20:38:00,47.4,42.0,29.83,West,275,9.2,12.4,81,0.00,,,0.16,0.00,VWS V14.01,2013-10-18 00:38:00,
2013-10-17 20:40:00,46.8,41.9,29.85,West,263,5.7,8.5,83,0.00,,,0.16,0.00,VWS V14.01,2013-10-18 00:40:00,
2013-10-17 20:41:00,46.9,42.2,29.83,West,271,8.0,8.0,84,0.00,,,0.16,0.00,VWS V14.01,2013-10-18 00:41:00,
2013-10-17 20:44:00,47.2,42.7,29.84,West,262,6.4,7.3,85,0.00,,,0.16,0.00,VWS V14.01,2013-10-18 00:44:00,
2013-10-17 20:45:00,47.4,42.9,29.83,West,280,11.4,11.4,84,0.00,,,0.16,0.00,VWS V14.01,2013-10-18 00:45:00,
2013-10-17 20:46:00,47.2,42.6,29.84,West,274,10.9,12.3,84,0.00,,,0.16,0.00,VWS V14.01,2013-10-18 00:46:00,
2013-10-17 20:49:00,47.1,42.1,29.84,West,272,8.3,11.2,83,0.00,,,0.16,0.73,VWS V14.01,2013-10-18 00:49:00,
2013-10-17 20:50:00,47.2,42.5,29.84,West,275,8.7,9.9,83,0.00,,,0.16,0.73,VWS V14.01,2013-10-18 00:50:00,
2013-10-17 20:52:00,47.1,42.4,29.84,WNW,293,9.3,9.3,83,0.00,,,0.16,0.00,VWS V14.01,2013-10-18 00:52:00,
2013-10-17 20:53:00,47.1,42.4,29.84,West,276,7.5,9.3,84,0.00,,,0.16,0.00,VWS V14.01,2013-10-18 00:53:00,
2013-10-17 20:54:00,46.9,42.4,29.84,WSW,250,6.3,9.2,84,0.00,,,0.16,0.00,VWS V14.01,2013-10-18 00:54:00,
2013-10-17 20:55:00,47.0,41.3,29.84,West,275,8.8,12.4,80,0.00,,,0.16,0.00,VWS V14.01,2013-10-18 00:55:00,
2013-10-17 20:57:00,47.2,42.7,29.84,West,271,9.7,9.7,84,0.00,,,0.16,0.00,VWS V14.01,2013-10-18 00:57:00,
2013-10-17 20:59:00,47.1,42.4,29.83,West,276,7.8,8.5,84,0.00,,,0.16,0.00,VWS V14.01,2013-10-18 00:59:00,
2013-10-17 21:00:00,47.1,42.4,29.83,West,276,7.8,8.5,84,0.00,,,0.16,0.00,VWS V14.01,2013-10-18 01:00:00,
2013-10-17 21:01:00,47.3,42.4,29.84,West,275,9.3,9.3,83,0.00,,,0.16,0.00,VWS V14.01,2013-10-18 01:01:00,
2013-10-17 21:03:00,47.0,42.2,29.85,West,273,6.1,8.7,83,0.00,,,0.16,0.12,VWS V14.01,2013-10-18 01:03:00,
2013-10-17 21:05:00,47.1,42.2,29.84,West,270,6.6,7.3,83,0.00,,,0.16,0.12,VWS V14.01,2013-10-18 01:05:00,
2013-10-17 21:06:00,47.5,42.6,29.84,WNW,290,10.0,10.0,83,0.00,,,0.16,0.43,VWS V14.01,2013-10-18 01:06:00,
2013-10-17 21:07:00,47.2,42.2,29.83,WSW,252,9.7,10.0,83,0.00,,,0.16,0.00,VWS V14.01,2013-10-18 01:07:00,
2013-10-17 21:09:00,46.9,42.2,29.85,West,272,4.9,7.5,83,0.00,,,0.16,0.12,VWS V14.01,2013-10-18 01:09:00,
2013-10-17 21:11:00,47.1,42.1,29.85,WNW,292,6.1,8.3,83,0.00,,,0.00,0.00,VWS V14.01,2013-10-18 01:11:00,
2013-10-17 21:13:00,47.1,42.2,29.85,West,278,9.0,9.0,83,0.00,,,0.16,0.00,VWS V14.01,2013-10-18 01:13:00,
2013-10-17 21:14:00,47.5,42.5,29.85,West,259,7.6,9.0,82,0.00,,,0.16,0.67,VWS V14.01,2013-10-18 01:14:00,
2013-10-17 21:15:00,47.2,42.1,29.85,West,269,8.0,8.0,82,0.00,,,0.16,0.00,VWS V14.01,2013-10-18 01:15:00,
2013-10-17 21:17:00,47.2,41.9,29.84,West,268,7.6,7.6,82,0.00,,,0.16,0.00,VWS V14.01,2013-10-18 01:17:00,
2013-10-17 21:18:00,47.5,42.1,29.84,West,277,10.4,10.4,81,0.00,,,0.16,0.00,VWS V14.01,2013-10-18 01:18:00,
2013-10-17 21:19:00,47.2,41.6,29.84,West,264,9.2,10.4,81,0.00,,,0.16,0.00,VWS V14.01,2013-10-18 01:19:00,
2013-10-17 21:20:00,47.5,41.7,29.84,West,263,10.9,10.9,80,0.00,,,0.16,0.00,VWS V14.01,2013-10-18 01:20:00,
2013-10-17 21:21:00,47.4,41.5,29.84,West,274,8.8,10.9,80,0.00,,,0.16,0.00,VWS V14.01,2013-10-18 01:21:00,
2013-10-17 21:24:00,47.5,41.5,29.86,West,277,11.6,11.6,79,0.00,,,0.16,0.73,VWS V14.01,2013-10-18 01:24:00,
2013-10-17 21:25:00,47.0,41.1,29.85,West,264,5.9,9.2,80,0.00,,,0.16,0.00,VWS V14.01,2013-10-18 01:25:00,
2013-10-17 21:27:00,47.5,41.2,29.85,WSW,256,10.0,10.0,79,0.00,,,0.16,0.00,VWS V14.01,2013-10-18 01:27:00,
2013-10-17 21:29:00,47.4,41.1,29.85,West,270,10.2,10.2,79,0.00,,,0.16,0.00,VWS V14.01,2013-10-18 01:29:00,
2013-10-17 21:30:00,47.3,41.0,29.85,West,274,9.5,10.2,79,0.00,,,0.16,0.00,VWS V14.01,2013-10-18 01:30:00,
2013-10-17 21:34:00,47.2,41.4,29.85,West,263,9.2,9.2,80,0.00,,,0.16,0.00,VWS V14.01,2013-10-18 01:34:00,
2013-10-17 21:35:00,47.2,41.4,29.85,West,259,8.1,9.2,80,0.00,,,0.16,0.73,VWS V14.01,2013-10-18 01:35:00,
2013-10-17 21:36:00,47.2,41.4,29.85,West,272,6.9,8.1,80,0.00,,,0.16,0.00,VWS V14.01,2013-10-18 01:36:00,
2013-10-17 21:37:00,47.3,41.4,29.86,West,262,8.3,8.3,80,0.00,,,0.16,0.00,VWS V14.01,2013-10-18 01:37:00,
2013-10-17 21:38:00,47.3,41.4,29.85,WSW,241,7.6,7.6,80,0.00,,,0.16,0.00,VWS V14.01,2013-10-18 01:38:00,
2013-10-17 21:41:00,47.2,41.2,29.85,West,265,7.1,7.8,79,0.00,,,0.16,0.00,VWS V14.01,2013-10-18 01:41:00,
2013-10-17 21:44:00,47.2,41.1,29.85,West,264,11.1,11.1,79,0.00,,,0.16,0.73,VWS V14.01,2013-10-18 01:44:00,
2013-10-17 21:46:00,47.1,40.9,29.85,West,270,8.8,11.2,79,0.00,,,0.16,0.12,VWS V14.01,2013-10-18 01:46:00,
2013-10-17 21:47:00,47.2,40.9,29.85,West,277,8.1,8.1,79,0.00,,,0.16,0.00,VWS V14.01,2013-10-18 01:47:00,
2013-10-17 21:49:00,47.0,40.8,29.85,West,265,6.4,6.4,79,0.00,,,0.16,0.12,VWS V14.01,2013-10-18 01:49:00,
2013-10-17 21:50:00,47.2,41.0,29.85,WSW,246,11.7,11.7,79,0.00,,,0.16,0.43,VWS V14.01,2013-10-18 01:50:00,
2013-10-17 21:52:00,46.9,40.3,29.86,West,273,9.0,9.0,78,0.00,,,0.16,0.00,VWS V14.01,2013-10-18 01:52:00,
2013-10-17 21:57:00,47.2,40.7,29.85,West,264,13.1,13.1,78,0.00,,,0.16,0.00,VWS V14.01,2013-10-18 01:57:00,
2013-10-17 21:59:00,47.2,40.9,29.85,West,275,10.0,10.0,78,0.00,,,0.16,0.00,VWS V14.01,2013-10-18 01:59:00,
2013-10-17 22:02:00,47.4,40.8,29.86,West,263,10.5,11.6,78,0.00,,,0.16,0.00,VWS V14.01,2013-10-18 02:02:00,
2013-10-17 22:03:00,47.0,40.5,29.86,West,273,10.0,11.6,78,0.00,,,0.16,0.00,VWS V14.01,2013-10-18 02:03:00,
2013-10-17 22:04:00,47.0,40.6,29.85,SW,234,7.8,11.6,78,0.00,,,0.16,0.00,VWS V14.01,2013-10-18 02:04:00,
2013-10-17 22:08:00,47.0,40.8,29.86,WNW,290,8.7,11.6,79,0.00,,,0.16,0.12,VWS V14.01,2013-10-18 02:08:00,
2013-10-17 22:09:00,47.0,41.1,29.86,WSW,251,10.5,11.6,80,0.00,,,0.16,0.00,VWS V14.01,2013-10-18 02:09:00,
2013-10-17 22:13:00,46.8,41.1,29.86,WNW,290,6.8,11.6,80,0.00,,,0.16,0.00,VWS V14.01,2013-10-18 02:13:00,
2013-10-17 22:14:00,46.9,41.3,29.86,WSW,254,5.1,11.6,81,0.00,,,0.16,0.00,VWS V14.01,2013-10-18 02:14:00,
2013-10-17 22:15:00,47.0,41.3,29.86,West,280,7.3,11.6,80,0.00,,,0.16,0.00,VWS V14.01,2013-10-18 02:15:00,
2013-10-17 22:16:00,47.0,41.2,29.86,West,272,7.1,11.6,80,0.00,,,0.16,0.00,VWS V14.01,2013-10-18 02:16:00,
2013-10-17 22:18:00,47.2,41.3,29.86,West,273,10.0,11.6,80,0.00,,,0.16,0.00,VWS V14.01,2013-10-18 02:18:00,
2013-10-17 22:19:00,46.9,41.0,29.86,West,278,6.6,11.6,80,0.00,,,0.16,0.00,VWS V14.01,2013-10-18 02:19:00,
2013-10-17 22:20:00,47.3,41.3,29.86,WSW,254,9.9,11.6,80,0.00,,,0.16,0.00,VWS V14.01,2013-10-18 02:20:00,
2013-10-17 22:21:00,47.0,41.0,29.87,West,260,6.9,11.6,80,0.00,,,0.16,0.00,VWS V14.01,2013-10-18 02:21:00,
2013-10-17 22:23:00,46.9,41.3,29.87,West,278,5.6,11.6,81,0.00,,,0.16,0.00,VWS V14.01,2013-10-18 02:23:00,
2013-10-17 22:26:00,47.0,41.3,29.86,West,274,6.6,11.6,80,0.00,,,0.16,0.00,VWS V14.01,2013-10-18 02:26:00,
2013-10-17 22:27:00,47.0,41.0,29.85,West,262,7.6,11.6,79,0.00,,,0.16,0.00,VWS V14.01,2013-10-18 02:27:00,
2013-10-17 22:29:00,47.0,40.9,29.87,WSW,243,4.2,11.6,79,0.00,,,0.16,0.12,VWS V14.01,2013-10-18 02:29:00,
2013-10-17 22:31:00,47.1,41.1,29.87,West,261,5.6,11.6,79,0.00,,,0.16,0.00,VWS V14.01,2013-10-18 02:31:00,
2013-10-17 22:32:00,47.2,41.1,29.87,WNW,283,7.8,11.6,79,0.00,,,0.16,0.00,VWS V14.01,2013-10-18 02:32:00,
2013-10-17 22:33:00,46.9,41.2,29.87,West,261,5.4,11.6,80,0.00,,,0.16,0.00,VWS V14.01,2013-10-18 02:33:00,
2013-10-17 22:35:00,46.8,41.2,29.87,WSW,253,5.1,11.6,81,0.00,,,0.16,0.00,VWS V14.01,2013-10-18 02:35:00,
2013-10-17 22:37:00,47.0,41.4,29.87,West,279,5.9,11.6,81,0.00,,,0.16,0.43,VWS V14.01,2013-10-18 02:37:00,
2013-10-17 22:38:00,47.0,41.4,29.87,West,279,5.9,11.6,81,0.00,,,0.16,0.43,VWS V14.01,2013-10-18 02:38:00,
2013-10-17 22:39:00,47.0,41.5,29.86,West,263,3.5,11.6,81,0.00,,,0.16,0.00,VWS V14.01,2013-10-18 02:39:00,
2013-10-17 22:40:00,46.8,41.2,29.87,West,265,4.9,11.6,81,0.00,,,0.16,0.00,VWS V14.01,2013-10-18 02:40:00,
2013-10-17 22:44:00,47.0,41.3,29.87,West,270,5.1,11.6,81,0.00,,,0.16,0.12,VWS V14.01,2013-10-18 02:44:00,
2013-10-17 22:45:00,46.9,41.1,29.87,WSW,246,6.1,11.6,80,0.00,,,0.16,0.43,VWS V14.01,2013-10-18 02:45:00,
2013-10-17 22:46:00,47.0,41.0,29.86,WSW,252,5.1,11.6,79,0.00,,,0.16,0.00,VWS V14.01,2013-10-18 02:46:00,
2013-10-17 22:48:00,47.1,41.1,29.87,WSW,245,3.5,11.6,80,0.00,,,0.16,0.00,VWS V14.01,2013-10-18 02:48:00,
2013-10-17 22:49:00,47.0,41.2,29.86,WSW,251,3.9,11.6,80,0.00,,,0.16,0.00,VWS V14.01,2013-10-18 02:49:00,
2013-10-17 22:51:00,47.0,40.9,29.87,West,265,4.4,11.6,79,0.00,,,0.16,0.00,VWS V14.01,2013-10-18 02:51:00,
2013-10-17 22:52:00,47.0,40.9,29.87,WNW,285,3.2,11.6,79,0.00,,,0.16,0.00,VWS V14.01,2013-10-18 02:52:00,
2013-10-17 22:53:00,47.0,41.0,29.86,West,261,3.0,11.6,80,0.00,,,0.16,0.00,VWS V14.01,2013-10-18 02:53:00,
2013-10-17 22:54:00,47.2,41.1,29.87,WSW,258,4.7,11.6,79,0.00,,,0.16,0.00,VWS V14.01,2013-10-18 02:54:00,
2013-10-17 22:57:00,47.0,40.9,29.86,WSW,258,3.4,11.6,79,0.00,,,0.16,0.00,VWS V14.01,2013-10-18 02:57:00,
2013-10-17 22:58:00,46.7,40.7,29.86,WSW,257,2.0,11.6,79,0.00,,,0.16,0.00,VWS V14.01,2013-10-18 02:58:00,
2013-10-17 22:59:00,46.7,40.7,29.86,WSW,258,3.2,11.6,80,0.00,,,0.16,0.00,VWS V14.01,2013-10-18 02:59:00,
2013-10-17 23:00:00,47.0,41.2,29.86,West,259,5.1,11.6,80,0.00,,,0.16,0.00,VWS V14.01,2013-10-18 03:00:00,
2013-10-17 23:03:00,47.0,41.3,29.87,West,269,3.5,4.2,81,0.00,,,0.16,0.00,VWS V14.01,2013-10-18 03:03:00,
2013-10-17 23:05:00,47.0,41.2,29.87,WSW,254,3.9,3.9,80,0.00,,,0.16,0.00,VWS V14.01,2013-10-18 03:05:00,
2013-10-17 23:06:00,46.8,41.0,29.86,WSW,248,4.5,4.5,80,0.00,,,0.16,0.00,VWS V14.01,2013-10-18 03:06:00,
2013-10-17 23:07:00,46.9,41.0,29.87,WSW,253,3.9,3.9,80,0.00,,,0.16,0.06,VWS V14.01,2013-10-18 03:07:00,
2013-10-17 23:08:00,46.9,41.1,29.87,West,264,3.9,3.9,80,0.00,,,0.16,0.00,VWS V14.01,2013-10-18 03:08:00,
2013-10-17 23:09:00,47.2,41.5,29.87,West,265,5.4,5.4,80,0.00,,,0.16,0.00,VWS V14.01,2013-10-18 03:09:00,
2013-10-17 23:10:00,47.1,41.3,29.87,WSW,256,4.7,5.4,80,0.00,,,0.16,0.00,VWS V14.01,2013-10-18 03:10:00,
2013-10-17 23:11:00,47.1,41.3,29.87,WSW,256,4.7,5.4,80,0.00,,,0.16,0.00,VWS V14.01,2013-10-18 03:11:00,
2013-10-17 23:12:00,47.3,41.5,29.86,WSW,254,6.3,6.3,80,0.00,,,0.16,0.00,VWS V14.01,2013-10-18 03:12:00,
2013-10-17 23:13:00,47.4,41.4,29.87,WSW,256,7.1,7.1,80,0.00,,,0.16,0.00,VWS V14.01,2013-10-18 03:13:00,
2013-10-17 23:15:00,47.2,41.0,29.86,WSW,242,5.1,6.1,79,0.00,,,0.16,0.00,VWS V14.01,2013-10-18 03:15:00,
2013-10-17 23:16:00,47.2,41.0,29.86,WSW,242,5.1,6.1,79,0.00,,,0.16,0.00,VWS V14.01,2013-10-18 03:16:00,
2013-10-17 23:17:00,47.2,41.0,29.86,West,271,5.9,6.1,79,0.00,,,0.16,0.00,VWS V14.01,2013-10-18 03:17:00,
2013-10-17 23:18:00,46.7,39.6,29.86,WSW,238,3.7,6.9,76,0.00,,,0.16,0.12,VWS V14.01,2013-10-18 03:18:00,
2013-10-17 23:19:00,47.1,41.1,29.87,WSW,249,5.6,5.6,80,0.00,,,0.16,0.00,VWS V14.01,2013-10-18 03:19:00,
2013-10-17 23:22:00,47.0,41.2,29.86,WSW,257,6.3,6.3,80,0.00,,,0.16,0.37,VWS V14.01,2013-10-18 03:22:00,
2013-10-17 23:23:00,46.8,40.9,29.87,West,259,5.9,5.9,80,0.00,,,0.16,0.00,VWS V14.01,2013-10-18 03:23:00,
2013-10-17 23:24:00,46.6,40.8,29.86,WSW,255,4.2,4.2,80,0.00,,,0.16,0.00,VWS V14.01,2013-10-18 03:24:00,
2013-10-17 23:25:00,46.6,41.1,29.88,WSW,241,2.7,4.7,81,0.00,,,0.16,0.00,VWS V14.01,2013-10-18 03:25:00,
2013-10-17 23:28:00,46.9,41.0,29.87,WSW,249,3.7,6.6,80,0.00,,,0.16,0.73,VWS V14.01,2013-10-18 03:28:00,
2013-10-17 23:29:00,47.2,41.2,29.87,WSW,250,4.9,5.4,79,0.00,,,0.16,0.00,VWS V14.01,2013-10-18 03:29:00,
2013-10-17 23:30:00,47.2,41.0,29.87,West,263,7.1,7.1,79,0.00,,,0.16,0.00,VWS V14.01,2013-10-18 03:30:00,
2013-10-17 23:31:00,46.9,40.9,29.87,West,262,2.3,7.1,80,0.00,,,0.16,0.00,VWS V14.01,2013-10-18 03:31:00,
2013-10-17 23:35:00,46.9,39.9,29.87,WSW,250,4.0,5.6,76,0.00,,,0.16,0.00,VWS V14.01,2013-10-18 03:35:00,
2013-10-17 23:36:00,47.2,41.4,29.87,WSW,251,5.4,5.4,80,0.00,,,0.16,0.73,VWS V14.01,2013-10-18 03:36:00,
2013-10-17 23:38:00,47.0,41.2,29.87,WSW,243,4.7,4.7,80,0.00,,,0.16,0.00,VWS V14.01,2013-10-18 03:38:00,
2013-10-17 23:40:00,46.9,41.1,29.87,WSW,243,3.5,4.2,80,0.00,,,0.16,0.00,VWS V14.01,2013-10-18 03:40:00,
2013-10-17 23:42:00,47.2,41.4,29.86,West,259,5.4,5.4,80,0.00,,,0.16,0.73,VWS V14.01,2013-10-18 03:42:00,
2013-10-17 23:43:00,46.9,41.0,29.86,West,265,4.9,5.4,80,0.00,,,0.16,0.00,VWS V14.01,2013-10-18 03:43:00,
2013-10-17 23:44:00,46.8,40.9,29.86,WSW,249,3.2,4.5,80,0.00,,,0.16,0.12,VWS V14.01,2013-10-18 03:44:00,
2013-10-17 23:45:00,46.8,41.2,29.86,WSW,257,3.9,3.9,81,0.00,,,0.16,0.00,VWS V14.01,2013-10-18 03:45:00,
2013-10-17 23:48:00,46.7,40.6,29.86,WSW,253,5.2,5.2,79,0.00,,,0.16,0.00,VWS V14.01,2013-10-18 03:48:00,
2013-10-17 23:49:00,46.7,40.8,29.87,WSW,251,3.4,5.2,80,0.00,,,0.16,0.00,VWS V14.01,2013-10-18 03:49:00,
2013-10-17 23:51:00,46.9,40.7,29.87,West,262,7.1,7.1,79,0.00,,,0.16,0.00,VWS V14.01,2013-10-18 03:51:00,
2013-10-17 23:54:00,46.8,40.6,29.86,WSW,243,5.6,5.6,79,0.00,,,0.16,0.00,VWS V14.01,2013-10-18 03:54:00,
2013-10-17 23:55:00,46.8,40.6,29.87,WSW,248,6.4,6.6,79,0.00,,,0.16,0.00,VWS V14.01,2013-10-18 03:55:00,
2013-10-17 23:56:00,47.0,40.7,29.86,WSW,248,6.4,6.4,78,0.00,,,0.16,0.00,VWS V14.01,2013-10-18 03:56:00,
2013-10-17 23:57:00,47.0,40.7,29.86,West,265,5.2,5.2,78,0.00,,,0.16,0.12,VWS V14.01,2013-10-18 03:57:00,